<?xml version="1.0" encoding="UTF-8" standalone="no" ?>
<gpx xmlns="http://www.topografix.com/GPX/1/1" xmlns:xsi="http://www.w3.org/2001/XMLSchema-instance" xsi:schemaLocation="http://www.topografix.com/GPX/1/1 http://www.topografix.com/GPX/1/1/gpx.xsd" version="1.1" creator="VisuGPX - https://www.visugpx.com">
  <metadata>
    <name>Pic-Louvette 65km 2025</name>
  </metadata>
  <trk>
    <name><![CDATA[Pic-Louvette 65km 2025]]></name>
    <trkseg>
      <trkpt lat="48.71144" lon="-0.54171">
        <ele>207.651414</ele>
        <time>2024-11-09T18:24:37.963Z</time>
      </trkpt>
      <trkpt lat="48.71137" lon="-0.54186">
        <ele>207.651414</ele>
        <time>2024-11-09T18:24:50.250Z</time>
      </trkpt>
      <trkpt lat="48.71081" lon="-0.54259">
        <ele>207.651414</ele>
        <time>2024-11-09T18:26:08.868Z</time>
      </trkpt>
      <trkpt lat="48.71043" lon="-0.54307">
        <ele>207.077663</ele>
        <time>2024-11-09T18:27:00.636Z</time>
      </trkpt>
      <trkpt lat="48.71041" lon="-0.5431">
        <ele>207.04113</ele>
        <time>2024-11-09T18:27:03.655Z</time>
      </trkpt>
      <trkpt lat="48.71011" lon="-0.54346">
        <ele>206.54992</ele>
        <time>2024-11-09T18:27:43.996Z</time>
      </trkpt>
      <trkpt lat="48.70926" lon="-0.54452">
        <ele>205.471929</ele>
        <time>2024-11-09T18:29:34.783Z</time>
      </trkpt>
      <trkpt lat="48.70894" lon="-0.54492">
        <ele>205.739815</ele>
        <time>2024-11-09T18:30:17.323Z</time>
      </trkpt>
      <trkpt lat="48.70874" lon="-0.54523">
        <ele>205.923589</ele>
        <time>2024-11-09T18:30:46.663Z</time>
      </trkpt>
      <trkpt lat="48.70835" lon="-0.54605">
        <ele>206.351369</ele>
        <time>2024-11-09T18:31:55.575Z</time>
      </trkpt>
      <trkpt lat="48.70793" lon="-0.54693">
        <ele>206.694481</ele>
        <time>2024-11-09T18:33:09.928Z</time>
      </trkpt>
      <trkpt lat="48.70837" lon="-0.54756">
        <ele>206.924317</ele>
        <time>2024-11-09T18:34:12.138Z</time>
      </trkpt>
      <trkpt lat="48.7084" lon="-0.5476">
        <ele>206.93794</ele>
        <time>2024-11-09T18:34:15.820Z</time>
      </trkpt>
      <trkpt lat="48.70868" lon="-0.54832">
        <ele>207.143985</ele>
        <time>2024-11-09T18:35:10.534Z</time>
      </trkpt>
      <trkpt lat="48.70872" lon="-0.54831">
        <ele>207.161319</ele>
        <time>2024-11-09T18:35:15.140Z</time>
      </trkpt>
      <trkpt lat="48.70972" lon="-0.54838">
        <ele>206.729965</ele>
        <time>2024-11-09T18:36:55.952Z</time>
      </trkpt>
      <trkpt lat="48.7107" lon="-0.54869">
        <ele>206.319625</ele>
        <time>2024-11-09T18:38:38.272Z</time>
      </trkpt>
      <trkpt lat="48.71118" lon="-0.54897">
        <ele>206.681424</ele>
        <time>2024-11-09T18:39:29.383Z</time>
      </trkpt>
      <trkpt lat="48.71287" lon="-0.55022">
        <ele>208.73403</ele>
        <time>2024-11-09T18:42:46.576Z</time>
      </trkpt>
      <trkpt lat="48.71474" lon="-0.55184">
        <ele>211.983079</ele>
        <time>2024-11-09T18:46:37.432Z</time>
      </trkpt>
      <trkpt lat="48.71927" lon="-0.5556">
        <ele>213.155901</ele>
        <time>2024-11-09T18:55:17.684Z</time>
      </trkpt>
      <trkpt lat="48.71996" lon="-0.55591">
        <ele>212.728246</ele>
        <time>2024-11-09T18:56:31.274Z</time>
      </trkpt>
      <trkpt lat="48.72074" lon="-0.55603">
        <ele>211.642174</ele>
        <time>2024-11-09T18:57:51.851Z</time>
      </trkpt>
      <trkpt lat="48.72155" lon="-0.55601">
        <ele>210.172257</ele>
        <time>2024-11-09T18:59:17.004Z</time>
      </trkpt>
      <trkpt lat="48.72453" lon="-0.5547">
        <ele>204.44949</ele>
        <time>2024-11-09T19:04:39.544Z</time>
      </trkpt>
      <trkpt lat="48.72483" lon="-0.5546">
        <ele>203.904415</ele>
        <time>2024-11-09T19:05:10.978Z</time>
      </trkpt>
      <trkpt lat="48.72479" lon="-0.55477">
        <ele>203.682732</ele>
        <time>2024-11-09T19:05:23.790Z</time>
      </trkpt>
      <trkpt lat="48.72474" lon="-0.55491">
        <ele>203.497214</ele>
        <time>2024-11-09T19:05:34.488Z</time>
      </trkpt>
      <trkpt lat="48.72522" lon="-0.55605">
        <ele>202.302705</ele>
        <time>2024-11-09T19:07:06.989Z</time>
      </trkpt>
      <trkpt lat="48.72522" lon="-0.55631">
        <ele>202.148573</ele>
        <time>2024-11-09T19:07:24.586Z</time>
      </trkpt>
      <trkpt lat="48.725" lon="-0.55678">
        <ele>201.804263</ele>
        <time>2024-11-09T19:08:03.873Z</time>
      </trkpt>
      <trkpt lat="48.72485" lon="-0.5569">
        <ele>201.652193</ele>
        <time>2024-11-09T19:08:21.052Z</time>
      </trkpt>
      <trkpt lat="48.72453" lon="-0.55704">
        <ele>201.356961</ele>
        <time>2024-11-09T19:08:54.111Z</time>
      </trkpt>
      <trkpt lat="48.72441" lon="-0.55713">
        <ele>201.231513</ele>
        <time>2024-11-09T19:09:08.080Z</time>
      </trkpt>
      <trkpt lat="48.72429" lon="-0.55738">
        <ele>201.060001</ele>
        <time>2024-11-09T19:09:28.541Z</time>
      </trkpt>
      <trkpt lat="48.72406" lon="-0.55753">
        <ele>200.875402</ele>
        <time>2024-11-09T19:09:53.882Z</time>
      </trkpt>
      <trkpt lat="48.72395" lon="-0.55765">
        <ele>200.778517</ele>
        <time>2024-11-09T19:10:07.195Z</time>
      </trkpt>
      <trkpt lat="48.72381" lon="-0.55809">
        <ele>200.541288</ele>
        <time>2024-11-09T19:10:40.012Z</time>
      </trkpt>
      <trkpt lat="48.7236" lon="-0.55851">
        <ele>200.285834</ele>
        <time>2024-11-09T19:11:15.481Z</time>
      </trkpt>
      <trkpt lat="48.72332" lon="-0.55941">
        <ele>199.800611</ele>
        <time>2024-11-09T19:12:22.668Z</time>
      </trkpt>
      <trkpt lat="48.72323" lon="-0.55952">
        <ele>199.791383</ele>
        <time>2024-11-09T19:12:34.841Z</time>
      </trkpt>
      <trkpt lat="48.72284" lon="-0.55972">
        <ele>199.832525</ele>
        <time>2024-11-09T19:13:16.424Z</time>
      </trkpt>
      <trkpt lat="48.72247" lon="-0.55983">
        <ele>199.869573</ele>
        <time>2024-11-09T19:13:53.627Z</time>
      </trkpt>
      <trkpt lat="48.72242" lon="-0.55988">
        <ele>199.876327</ele>
        <time>2024-11-09T19:14:00.444Z</time>
      </trkpt>
      <trkpt lat="48.72239" lon="-0.55996">
        <ele>199.881981</ele>
        <time>2024-11-09T19:14:06.211Z</time>
      </trkpt>
      <trkpt lat="48.72257" lon="-0.56057">
        <ele>199.925784</ele>
        <time>2024-11-09T19:14:51.017Z</time>
      </trkpt>
      <trkpt lat="48.72293" lon="-0.56146">
        <ele>200.147795</ele>
        <time>2024-11-09T19:16:01.754Z</time>
      </trkpt>
      <trkpt lat="48.72295" lon="-0.56158">
        <ele>200.191705</ele>
        <time>2024-11-09T19:16:09.759Z</time>
      </trkpt>
      <trkpt lat="48.72291" lon="-0.56171">
        <ele>200.246307</ele>
        <time>2024-11-09T19:16:19.676Z</time>
      </trkpt>
      <trkpt lat="48.72205" lon="-0.56269">
        <ele>200.849228</ele>
        <time>2024-11-09T19:18:09.180Z</time>
      </trkpt>
      <trkpt lat="48.72197" lon="-0.56281">
        <ele>200.911245</ele>
        <time>2024-11-09T19:18:20.518Z</time>
      </trkpt>
      <trkpt lat="48.72196" lon="-0.56288">
        <ele>200.9387</ele>
        <time>2024-11-09T19:18:25.476Z</time>
      </trkpt>
      <trkpt lat="48.72208" lon="-0.56313">
        <ele>201.103466</ele>
        <time>2024-11-09T19:18:45.997Z</time>
      </trkpt>
      <trkpt lat="48.72256" lon="-0.56374">
        <ele>201.684791</ele>
        <time>2024-11-09T19:19:50.622Z</time>
      </trkpt>
      <trkpt lat="48.72257" lon="-0.56382">
        <ele>201.73695</ele>
        <time>2024-11-09T19:19:56.438Z</time>
      </trkpt>
      <trkpt lat="48.72256" lon="-0.56393">
        <ele>201.801444</ele>
        <time>2024-11-09T19:20:03.629Z</time>
      </trkpt>
      <trkpt lat="48.72133" lon="-0.56597">
        <ele>202.941166</ele>
        <time>2024-11-09T19:23:13.667Z</time>
      </trkpt>
      <trkpt lat="48.72343" lon="-0.56775">
        <ele>202.515431</ele>
        <time>2024-11-09T19:27:18.154Z</time>
      </trkpt>
      <trkpt lat="48.72319" lon="-0.56943">
        <ele>202.967206</ele>
        <time>2024-11-09T19:29:12.001Z</time>
      </trkpt>
      <trkpt lat="48.72293" lon="-0.57102">
        <ele>203.851318</ele>
        <time>2024-11-09T19:31:05.152Z</time>
      </trkpt>
      <trkpt lat="48.7229" lon="-0.57127">
        <ele>204.159772</ele>
        <time>2024-11-09T19:31:23.645Z</time>
      </trkpt>
      <trkpt lat="48.7229" lon="-0.57171">
        <ele>204.680011</ele>
        <time>2024-11-09T19:31:54.891Z</time>
      </trkpt>
      <trkpt lat="48.7229" lon="-0.57212">
        <ele>205.177631</ele>
        <time>2024-11-09T19:32:24.991Z</time>
      </trkpt>
      <trkpt lat="48.72286" lon="-0.57232">
        <ele>205.419101</ele>
        <time>2024-11-09T19:32:39.510Z</time>
      </trkpt>
      <trkpt lat="48.72244" lon="-0.57342">
        <ele>206.946575</ele>
        <time>2024-11-09T19:34:07.558Z</time>
      </trkpt>
      <trkpt lat="48.72234" lon="-0.57359">
        <ele>207.241183</ele>
        <time>2024-11-09T19:34:23.382Z</time>
      </trkpt>
      <trkpt lat="48.72275" lon="-0.57402">
        <ele>208.212364</ele>
        <time>2024-11-09T19:35:15.815Z</time>
      </trkpt>
      <trkpt lat="48.72293" lon="-0.5743">
        <ele>208.721531</ele>
        <time>2024-11-09T19:35:43.526Z</time>
      </trkpt>
      <trkpt lat="48.72302" lon="-0.57449">
        <ele>209.020985</ele>
        <time>2024-11-09T19:35:59.912Z</time>
      </trkpt>
      <trkpt lat="48.72358" lon="-0.57564">
        <ele>211.245418</ele>
        <time>2024-11-09T19:37:42.646Z</time>
      </trkpt>
      <trkpt lat="48.7237" lon="-0.57604">
        <ele>212.230995</ele>
        <time>2024-11-09T19:38:15.621Z</time>
      </trkpt>
      <trkpt lat="48.72375" lon="-0.57639">
        <ele>213.034726</ele>
        <time>2024-11-09T19:38:42.437Z</time>
      </trkpt>
      <trkpt lat="48.72398" lon="-0.57779">
        <ele>216.282557</ele>
        <time>2024-11-09T19:40:29.878Z</time>
      </trkpt>
      <trkpt lat="48.7241" lon="-0.57808">
        <ele>216.998197</ele>
        <time>2024-11-09T19:40:55.152Z</time>
      </trkpt>
      <trkpt lat="48.72421" lon="-0.57851">
        <ele>217.954599</ele>
        <time>2024-11-09T19:41:29.481Z</time>
      </trkpt>
      <trkpt lat="48.7243" lon="-0.57896">
        <ele>218.901331</ele>
        <time>2024-11-09T19:42:03.380Z</time>
      </trkpt>
      <trkpt lat="48.72452" lon="-0.58015">
        <ele>221.472242</ele>
        <time>2024-11-09T19:43:34.959Z</time>
      </trkpt>
      <trkpt lat="48.72497" lon="-0.58203">
        <ele>223.571506</ele>
        <time>2024-11-09T19:45:55.786Z</time>
      </trkpt>
      <trkpt lat="48.72497" lon="-0.58203">
        <ele>223.571506</ele>
        <time>2024-11-09T19:45:55.860Z</time>
      </trkpt>
      <trkpt lat="48.72497" lon="-0.58203">
        <ele>223.571506</ele>
        <time>2024-11-09T19:45:55.860Z</time>
      </trkpt>
      <trkpt lat="48.72541" lon="-0.58183">
        <ele>224.180843</ele>
        <time>2024-11-09T19:46:41.444Z</time>
      </trkpt>
      <trkpt lat="48.72544" lon="-0.5818">
        <ele>224.236665</ele>
        <time>2024-11-09T19:46:45.781Z</time>
      </trkpt>
      <trkpt lat="48.72556" lon="-0.58164">
        <ele>224.449817</ele>
        <time>2024-11-09T19:47:01.756Z</time>
      </trkpt>
      <trkpt lat="48.72559" lon="-0.58152">
        <ele>224.515334</ele>
        <time>2024-11-09T19:47:10.256Z</time>
      </trkpt>
      <trkpt lat="48.72563" lon="-0.58147">
        <ele>224.550081</ele>
        <time>2024-11-09T19:47:15.479Z</time>
      </trkpt>
      <trkpt lat="48.72567" lon="-0.58141">
        <ele>224.590814</ele>
        <time>2024-11-09T19:47:21.520Z</time>
      </trkpt>
      <trkpt lat="48.72578" lon="-0.58138">
        <ele>224.666241</ele>
        <time>2024-11-09T19:47:32.621Z</time>
      </trkpt>
      <trkpt lat="48.72584" lon="-0.5814">
        <ele>224.704583</ele>
        <time>2024-11-09T19:47:38.288Z</time>
      </trkpt>
      <trkpt lat="48.72592" lon="-0.58147">
        <ele>224.769564</ele>
        <time>2024-11-09T19:47:47.850Z</time>
      </trkpt>
      <trkpt lat="48.72597" lon="-0.5816">
        <ele>224.839312</ele>
        <time>2024-11-09T19:47:58.244Z</time>
      </trkpt>
      <trkpt lat="48.72598" lon="-0.58176">
        <ele>224.909528</ele>
        <time>2024-11-09T19:48:08.663Z</time>
      </trkpt>
      <trkpt lat="48.72594" lon="-0.5819">
        <ele>224.981191</ele>
        <time>2024-11-09T19:48:19.517Z</time>
      </trkpt>
      <trkpt lat="48.72585" lon="-0.58201">
        <ele>225.061123</ele>
        <time>2024-11-09T19:48:31.516Z</time>
      </trkpt>
      <trkpt lat="48.72573" lon="-0.58203">
        <ele>225.140911</ele>
        <time>2024-11-09T19:48:43.485Z</time>
      </trkpt>
      <trkpt lat="48.72565" lon="-0.58198">
        <ele>225.200618</ele>
        <time>2024-11-09T19:48:52.508Z</time>
      </trkpt>
      <trkpt lat="48.7255" lon="-0.58195">
        <ele>225.303251</ele>
        <time>2024-11-09T19:49:08.040Z</time>
      </trkpt>
      <trkpt lat="48.7252" lon="-0.58211">
        <ele>225.519196</ele>
        <time>2024-11-09T19:49:40.772Z</time>
      </trkpt>
      <trkpt lat="48.72516" lon="-0.58214">
        <ele>225.551856</ele>
        <time>2024-11-09T19:49:45.696Z</time>
      </trkpt>
      <trkpt lat="48.72501" lon="-0.58218">
        <ele>225.659404</ele>
        <time>2024-11-09T19:50:02.166Z</time>
      </trkpt>
      <trkpt lat="48.7249" lon="-0.58226">
        <ele>225.716949</ele>
        <time>2024-11-09T19:50:14.303Z</time>
      </trkpt>
      <trkpt lat="48.72433" lon="-0.58261">
        <ele>225.91211</ele>
        <time>2024-11-09T19:51:18.751Z</time>
      </trkpt>
      <trkpt lat="48.72373" lon="-0.58298">
        <ele>226.117073</ele>
        <time>2024-11-09T19:52:24.620Z</time>
      </trkpt>
      <trkpt lat="48.72337" lon="-0.5832">
        <ele>226.238574</ele>
        <time>2024-11-09T19:53:03.742Z</time>
      </trkpt>
      <trkpt lat="48.72292" lon="-0.58348">
        <ele>225.928315</ele>
        <time>2024-11-09T19:53:53.068Z</time>
      </trkpt>
      <trkpt lat="48.72243" lon="-0.58373">
        <ele>225.48719</ele>
        <time>2024-11-09T19:54:46.383Z</time>
      </trkpt>
      <trkpt lat="48.7224" lon="-0.58374">
        <ele>225.460481</ele>
        <time>2024-11-09T19:54:49.556Z</time>
      </trkpt>
      <trkpt lat="48.72169" lon="-0.58393">
        <ele>224.845541</ele>
        <time>2024-11-09T19:56:03.400Z</time>
      </trkpt>
      <trkpt lat="48.72109" lon="-0.58399">
        <ele>224.73604</ele>
        <time>2024-11-09T19:57:03.812Z</time>
      </trkpt>
      <trkpt lat="48.72081" lon="-0.58397">
        <ele>224.734946</ele>
        <time>2024-11-09T19:57:31.333Z</time>
      </trkpt>
      <trkpt lat="48.71954" lon="-0.58387">
        <ele>224.917775</ele>
        <time>2024-11-09T19:59:39.834Z</time>
      </trkpt>
      <trkpt lat="48.71889" lon="-0.58382">
        <ele>225.448833</ele>
        <time>2024-11-09T20:00:45.556Z</time>
      </trkpt>
      <trkpt lat="48.71848" lon="-0.58379">
        <ele>225.785646</ele>
        <time>2024-11-09T20:01:27.636Z</time>
      </trkpt>
      <trkpt lat="48.7186" lon="-0.58458">
        <ele>226.256025</ele>
        <time>2024-11-09T20:02:23.348Z</time>
      </trkpt>
      <trkpt lat="48.71801" lon="-0.5847">
        <ele>227.856815</ele>
        <time>2024-11-09T20:03:27.532Z</time>
      </trkpt>
      <trkpt lat="48.71669" lon="-0.58532">
        <ele>231.588583</ele>
        <time>2024-11-09T20:06:01.994Z</time>
      </trkpt>
      <trkpt lat="48.71632" lon="-0.58539">
        <ele>232.576539</ele>
        <time>2024-11-09T20:06:43.687Z</time>
      </trkpt>
      <trkpt lat="48.71626" lon="-0.58546">
        <ele>232.775771</ele>
        <time>2024-11-09T20:06:52.122Z</time>
      </trkpt>
      <trkpt lat="48.71625" lon="-0.58557">
        <ele>232.98215</ele>
        <time>2024-11-09T20:07:00.781Z</time>
      </trkpt>
      <trkpt lat="48.71598" lon="-0.58616">
        <ele>234.236108</ele>
        <time>2024-11-09T20:07:53.097Z</time>
      </trkpt>
      <trkpt lat="48.71573" lon="-0.58641">
        <ele>235.050863</ele>
        <time>2024-11-09T20:08:26.318Z</time>
      </trkpt>
      <trkpt lat="48.71528" lon="-0.58673">
        <ele>235.742806</ele>
        <time>2024-11-09T20:09:17.644Z</time>
      </trkpt>
      <trkpt lat="48.71524" lon="-0.58682">
        <ele>235.703825</ele>
        <time>2024-11-09T20:09:25.326Z</time>
      </trkpt>
      <trkpt lat="48.71485" lon="-0.58698">
        <ele>235.49677</ele>
        <time>2024-11-09T20:10:05.325Z</time>
      </trkpt>
      <trkpt lat="48.71447" lon="-0.58721">
        <ele>235.282907</ele>
        <time>2024-11-09T20:10:47.036Z</time>
      </trkpt>
      <trkpt lat="48.71434" lon="-0.58723">
        <ele>235.212908</ele>
        <time>2024-11-09T20:11:00.875Z</time>
      </trkpt>
      <trkpt lat="48.71391" lon="-0.58746">
        <ele>234.975095</ele>
        <time>2024-11-09T20:11:48.190Z</time>
      </trkpt>
      <trkpt lat="48.71374" lon="-0.5876">
        <ele>234.758372</ele>
        <time>2024-11-09T20:12:08.032Z</time>
      </trkpt>
      <trkpt lat="48.71333" lon="-0.58803">
        <ele>233.502217</ele>
        <time>2024-11-09T20:12:59.780Z</time>
      </trkpt>
      <trkpt lat="48.71318" lon="-0.58832">
        <ele>232.871367</ele>
        <time>2024-11-09T20:13:25.902Z</time>
      </trkpt>
      <trkpt lat="48.71312" lon="-0.58847">
        <ele>232.587578</ele>
        <time>2024-11-09T20:13:37.684Z</time>
      </trkpt>
      <trkpt lat="48.71282" lon="-0.58884">
        <ele>231.607682</ele>
        <time>2024-11-09T20:14:18.593Z</time>
      </trkpt>
      <trkpt lat="48.71262" lon="-0.58905">
        <ele>230.976147</ele>
        <time>2024-11-09T20:14:45.113Z</time>
      </trkpt>
      <trkpt lat="48.71178" lon="-0.5904">
        <ele>229.601714</ele>
        <time>2024-11-09T20:16:54.597Z</time>
      </trkpt>
      <trkpt lat="48.71164" lon="-0.59088">
        <ele>229.344217</ele>
        <time>2024-11-09T20:17:28.965Z</time>
      </trkpt>
      <trkpt lat="48.71135" lon="-0.59099">
        <ele>229.121301</ele>
        <time>2024-11-09T20:18:00.041Z</time>
      </trkpt>
      <trkpt lat="48.71104" lon="-0.59158">
        <ele>230.026086</ele>
        <time>2024-11-09T20:18:55.103Z</time>
      </trkpt>
      <trkpt lat="48.71092" lon="-0.59233">
        <ele>231.765047</ele>
        <time>2024-11-09T20:19:54.294Z</time>
      </trkpt>
      <trkpt lat="48.71083" lon="-0.59291">
        <ele>233.091225</ele>
        <time>2024-11-09T20:20:39.225Z</time>
      </trkpt>
      <trkpt lat="48.71078" lon="-0.59297">
        <ele>233.315975</ele>
        <time>2024-11-09T20:20:46.805Z</time>
      </trkpt>
      <trkpt lat="48.71065" lon="-0.59303">
        <ele>233.790439</ele>
        <time>2024-11-09T20:21:02.680Z</time>
      </trkpt>
      <trkpt lat="48.71049" lon="-0.59302">
        <ele>234.327029</ele>
        <time>2024-11-09T20:21:20.516Z</time>
      </trkpt>
      <trkpt lat="48.71037" lon="-0.59306">
        <ele>234.72156</ele>
        <time>2024-11-09T20:21:33.399Z</time>
      </trkpt>
      <trkpt lat="48.70967" lon="-0.59345">
        <ele>236.645124</ele>
        <time>2024-11-09T20:22:54.084Z</time>
      </trkpt>
      <trkpt lat="48.70943" lon="-0.59354">
        <ele>237.229838</ele>
        <time>2024-11-09T20:23:19.290Z</time>
      </trkpt>
      <trkpt lat="48.70927" lon="-0.59356">
        <ele>237.624752</ele>
        <time>2024-11-09T20:23:36.454Z</time>
      </trkpt>
      <trkpt lat="48.70917" lon="-0.59348">
        <ele>237.895151</ele>
        <time>2024-11-09T20:23:48.356Z</time>
      </trkpt>
      <trkpt lat="48.70899" lon="-0.59359">
        <ele>238.35716</ele>
        <time>2024-11-09T20:24:08.912Z</time>
      </trkpt>
      <trkpt lat="48.70863" lon="-0.59375">
        <ele>239.280644</ele>
        <time>2024-11-09T20:24:50.837Z</time>
      </trkpt>
      <trkpt lat="48.70848" lon="-0.59392">
        <ele>239.896858</ele>
        <time>2024-11-09T20:25:11.410Z</time>
      </trkpt>
      <trkpt lat="48.70841" lon="-0.59384">
        <ele>240.24003</ele>
        <time>2024-11-09T20:25:21.585Z</time>
      </trkpt>
      <trkpt lat="48.70759" lon="-0.59403">
        <ele>243.429938</ele>
        <time>2024-11-09T20:26:58.071Z</time>
      </trkpt>
      <trkpt lat="48.7068" lon="-0.59426">
        <ele>246.434366</ele>
        <time>2024-11-09T20:28:29.770Z</time>
      </trkpt>
      <trkpt lat="48.70715" lon="-0.59533">
        <ele>247.516663</ele>
        <time>2024-11-09T20:29:54.094Z</time>
      </trkpt>
      <trkpt lat="48.70442" lon="-0.59811">
        <ele>250.435272</ele>
        <time>2024-11-09T20:35:28.290Z</time>
      </trkpt>
      <trkpt lat="48.70362" lon="-0.59896">
        <ele>251.814999</ele>
        <time>2024-11-09T20:37:11.364Z</time>
      </trkpt>
      <trkpt lat="48.70281" lon="-0.5995">
        <ele>253.590036</ele>
        <time>2024-11-09T20:38:48.225Z</time>
      </trkpt>
      <trkpt lat="48.70149" lon="-0.60045">
        <ele>256.262185</ele>
        <time>2024-11-09T20:41:27.513Z</time>
      </trkpt>
      <trkpt lat="48.70036" lon="-0.59696">
        <ele>253.982706</ele>
        <time>2024-11-09T20:45:51.582Z</time>
      </trkpt>
      <trkpt lat="48.6986" lon="-0.59147">
        <ele>247.272605</ele>
        <time>2024-11-09T20:52:48.256Z</time>
      </trkpt>
      <trkpt lat="48.6992" lon="-0.59071">
        <ele>245.660241</ele>
        <time>2024-11-09T20:54:10.834Z</time>
      </trkpt>
      <trkpt lat="48.69931" lon="-0.59014">
        <ele>244.792791</ele>
        <time>2024-11-09T20:54:52.412Z</time>
      </trkpt>
      <trkpt lat="48.69928" lon="-0.58977">
        <ele>244.253872</ele>
        <time>2024-11-09T20:55:18.099Z</time>
      </trkpt>
      <trkpt lat="48.69862" lon="-0.58762">
        <ele>242.105666</ele>
        <time>2024-11-09T20:58:00.002Z</time>
      </trkpt>
      <trkpt lat="48.69851" lon="-0.58742">
        <ele>241.993346</ele>
        <time>2024-11-09T20:58:17.785Z</time>
      </trkpt>
      <trkpt lat="48.69836" lon="-0.58725">
        <ele>241.872036</ele>
        <time>2024-11-09T20:58:37.066Z</time>
      </trkpt>
      <trkpt lat="48.69787" lon="-0.58686">
        <ele>241.519254</ele>
        <time>2024-11-09T20:59:32.379Z</time>
      </trkpt>
      <trkpt lat="48.69747" lon="-0.58658">
        <ele>243.09884</ele>
        <time>2024-11-09T21:00:19.456Z</time>
      </trkpt>
      <trkpt lat="48.69738" lon="-0.58647">
        <ele>243.592147</ele>
        <time>2024-11-09T21:00:32.918Z</time>
      </trkpt>
      <trkpt lat="48.69735" lon="-0.58642">
        <ele>243.771765</ele>
        <time>2024-11-09T21:00:37.366Z</time>
      </trkpt>
      <trkpt lat="48.69735" lon="-0.58642">
        <ele>243.771765</ele>
        <time>2024-11-09T21:00:37.470Z</time>
      </trkpt>
      <trkpt lat="48.69735" lon="-0.58642">
        <ele>243.771765</ele>
        <time>2024-11-09T21:00:37.470Z</time>
      </trkpt>
      <trkpt lat="48.69686" lon="-0.58625">
        <ele>245.865156</ele>
        <time>2024-11-09T21:01:28.279Z</time>
      </trkpt>
      <trkpt lat="48.69686" lon="-0.58625">
        <ele>245.865156</ele>
        <time>2024-11-09T21:01:28.547Z</time>
      </trkpt>
      <trkpt lat="48.69686" lon="-0.58625">
        <ele>245.865156</ele>
        <time>2024-11-09T21:01:28.547Z</time>
      </trkpt>
      <trkpt lat="48.69636" lon="-0.58722">
        <ele>249.377176</ele>
        <time>2024-11-09T21:02:49.593Z</time>
      </trkpt>
      <trkpt lat="48.69587" lon="-0.58819">
        <ele>254.712808</ele>
        <time>2024-11-09T21:04:10.808Z</time>
      </trkpt>
      <trkpt lat="48.69537" lon="-0.58916">
        <ele>260.041002</ele>
        <time>2024-11-09T21:05:31.906Z</time>
      </trkpt>
      <trkpt lat="48.69487" lon="-0.59013">
        <ele>262.864895</ele>
        <time>2024-11-09T21:06:53.013Z</time>
      </trkpt>
      <trkpt lat="48.69495" lon="-0.59035">
        <ele>263.352785</ele>
        <time>2024-11-09T21:07:11.376Z</time>
      </trkpt>
      <trkpt lat="48.69494" lon="-0.59064">
        <ele>263.947885</ele>
        <time>2024-11-09T21:07:33.255Z</time>
      </trkpt>
      <trkpt lat="48.69512" lon="-0.59162">
        <ele>265.95743</ele>
        <time>2024-11-09T21:08:42.914Z</time>
      </trkpt>
      <trkpt lat="48.69522" lon="-0.59186">
        <ele>265.970616</ele>
        <time>2024-11-09T21:09:02.063Z</time>
      </trkpt>
      <trkpt lat="48.69531" lon="-0.59207">
        <ele>265.712747</ele>
        <time>2024-11-09T21:09:18.498Z</time>
      </trkpt>
      <trkpt lat="48.69539" lon="-0.59347">
        <ele>264.218247</ele>
        <time>2024-11-09T21:10:55.119Z</time>
      </trkpt>
      <trkpt lat="48.6954" lon="-0.59362">
        <ele>264.052029</ele>
        <time>2024-11-09T21:11:05.971Z</time>
      </trkpt>
      <trkpt lat="48.69531" lon="-0.59374">
        <ele>263.87258</ele>
        <time>2024-11-09T21:11:17.702Z</time>
      </trkpt>
      <trkpt lat="48.69511" lon="-0.59386">
        <ele>263.522364</ele>
        <time>2024-11-09T21:11:40.585Z</time>
      </trkpt>
      <trkpt lat="48.6951" lon="-0.59387">
        <ele>263.508447</ele>
        <time>2024-11-09T21:11:41.499Z</time>
      </trkpt>
      <trkpt lat="48.69495" lon="-0.5939">
        <ele>263.262564</ele>
        <time>2024-11-09T21:11:57.399Z</time>
      </trkpt>
      <trkpt lat="48.69476" lon="-0.59385">
        <ele>262.79972</ele>
        <time>2024-11-09T21:12:18.407Z</time>
      </trkpt>
      <trkpt lat="48.69475" lon="-0.59386">
        <ele>262.772019</ele>
        <time>2024-11-09T21:12:19.665Z</time>
      </trkpt>
      <trkpt lat="48.69448" lon="-0.59414">
        <ele>262.00772</ele>
        <time>2024-11-09T21:12:54.224Z</time>
      </trkpt>
      <trkpt lat="48.69408" lon="-0.59446">
        <ele>260.965475</ele>
        <time>2024-11-09T21:13:41.317Z</time>
      </trkpt>
      <trkpt lat="48.694" lon="-0.59452">
        <ele>260.764587</ele>
        <time>2024-11-09T21:13:50.363Z</time>
      </trkpt>
      <trkpt lat="48.69361" lon="-0.59509">
        <ele>259.518249</ele>
        <time>2024-11-09T21:14:46.599Z</time>
      </trkpt>
      <trkpt lat="48.69267" lon="-0.59577">
        <ele>255.608732</ele>
        <time>2024-11-09T21:16:37.442Z</time>
      </trkpt>
      <trkpt lat="48.69166" lon="-0.59256">
        <ele>245.701211</ele>
        <time>2024-11-09T21:20:57.081Z</time>
      </trkpt>
      <trkpt lat="48.68987" lon="-0.58693">
        <ele>236.305008</ele>
        <time>2024-11-09T21:28:07.507Z</time>
      </trkpt>
      <trkpt lat="48.68972" lon="-0.58642">
        <ele>235.664577</ele>
        <time>2024-11-09T21:28:45.397Z</time>
      </trkpt>
      <trkpt lat="48.68795" lon="-0.58711">
        <ele>231.885377</ele>
        <time>2024-11-09T21:31:53.869Z</time>
      </trkpt>
      <trkpt lat="48.6871" lon="-0.58743">
        <ele>229.375089</ele>
        <time>2024-11-09T21:33:27.965Z</time>
      </trkpt>
      <trkpt lat="48.68692" lon="-0.5875">
        <ele>228.856881</ele>
        <time>2024-11-09T21:33:47.548Z</time>
      </trkpt>
      <trkpt lat="48.68567" lon="-0.58787">
        <ele>225.064146</ele>
        <time>2024-11-09T21:36:03.854Z</time>
      </trkpt>
      <trkpt lat="48.68561" lon="-0.58798">
        <ele>224.787714</ele>
        <time>2024-11-09T21:36:13.541Z</time>
      </trkpt>
      <trkpt lat="48.68534" lon="-0.59008">
        <ele>222.755576</ele>
        <time>2024-11-09T21:38:42.286Z</time>
      </trkpt>
      <trkpt lat="48.68527" lon="-0.59035">
        <ele>222.719757</ele>
        <time>2024-11-09T21:39:01.883Z</time>
      </trkpt>
      <trkpt lat="48.68497" lon="-0.59042">
        <ele>222.663951</ele>
        <time>2024-11-09T21:39:31.806Z</time>
      </trkpt>
      <trkpt lat="48.68511" lon="-0.59131">
        <ele>222.942404</ele>
        <time>2024-11-09T21:40:38.273Z</time>
      </trkpt>
      <trkpt lat="48.68512" lon="-0.59148">
        <ele>223.46819</ele>
        <time>2024-11-09T21:40:50.872Z</time>
      </trkpt>
      <trkpt lat="48.68513" lon="-0.59174">
        <ele>224.298792</ele>
        <time>2024-11-09T21:41:10.646Z</time>
      </trkpt>
      <trkpt lat="48.68532" lon="-0.5924">
        <ele>226.570188</ele>
        <time>2024-11-09T21:42:06.047Z</time>
      </trkpt>
      <trkpt lat="48.68534" lon="-0.59262">
        <ele>227.261201</ele>
        <time>2024-11-09T21:42:23.274Z</time>
      </trkpt>
      <trkpt lat="48.68539" lon="-0.59274">
        <ele>227.698586</ele>
        <time>2024-11-09T21:42:34.393Z</time>
      </trkpt>
      <trkpt lat="48.68547" lon="-0.59284">
        <ele>228.232285</ele>
        <time>2024-11-09T21:42:47.840Z</time>
      </trkpt>
      <trkpt lat="48.68546" lon="-0.59237">
        <ele>229.736839</ele>
        <time>2024-11-09T21:43:26.244Z</time>
      </trkpt>
      <trkpt lat="48.68552" lon="-0.59218">
        <ele>230.395277</ele>
        <time>2024-11-09T21:43:43.022Z</time>
      </trkpt>
      <trkpt lat="48.68565" lon="-0.59212">
        <ele>231.035218</ele>
        <time>2024-11-09T21:43:58.922Z</time>
      </trkpt>
      <trkpt lat="48.68572" lon="-0.59297">
        <ele>233.389287</ele>
        <time>2024-11-09T21:45:03.754Z</time>
      </trkpt>
      <trkpt lat="48.68575" lon="-0.59329">
        <ele>234.286046</ele>
        <time>2024-11-09T21:45:28.102Z</time>
      </trkpt>
      <trkpt lat="48.6855" lon="-0.59392">
        <ele>236.321913</ele>
        <time>2024-11-09T21:46:24.753Z</time>
      </trkpt>
      <trkpt lat="48.68518" lon="-0.59524">
        <ele>240.223873</ele>
        <time>2024-11-09T21:48:07.496Z</time>
      </trkpt>
      <trkpt lat="48.68509" lon="-0.59589">
        <ele>242.08469</ele>
        <time>2024-11-09T21:48:56.167Z</time>
      </trkpt>
      <trkpt lat="48.68502" lon="-0.59668">
        <ele>244.331325</ele>
        <time>2024-11-09T21:49:56.782Z</time>
      </trkpt>
      <trkpt lat="48.68509" lon="-0.59735">
        <ele>246.266681</ele>
        <time>2024-11-09T21:50:50.856Z</time>
      </trkpt>
      <trkpt lat="48.68534" lon="-0.59778">
        <ele>247.602085</ele>
        <time>2024-11-09T21:51:35.739Z</time>
      </trkpt>
      <trkpt lat="48.68575" lon="-0.59824">
        <ele>249.45388</ele>
        <time>2024-11-09T21:52:37.280Z</time>
      </trkpt>
      <trkpt lat="48.68608" lon="-0.59831">
        <ele>250.634019</ele>
        <time>2024-11-09T21:53:14.850Z</time>
      </trkpt>
      <trkpt lat="48.68611" lon="-0.59843">
        <ele>250.92793</ele>
        <time>2024-11-09T21:53:23.933Z</time>
      </trkpt>
      <trkpt lat="48.6862" lon="-0.5984">
        <ele>251.247308</ele>
        <time>2024-11-09T21:53:33.683Z</time>
      </trkpt>
      <trkpt lat="48.68622" lon="-0.59843">
        <ele>251.365587</ele>
        <time>2024-11-09T21:53:37.261Z</time>
      </trkpt>
      <trkpt lat="48.68628" lon="-0.59879">
        <ele>252.242729</ele>
        <time>2024-11-09T21:54:03.319Z</time>
      </trkpt>
      <trkpt lat="48.68601" lon="-0.59988">
        <ele>252.195402</ele>
        <time>2024-11-09T21:55:21.503Z</time>
      </trkpt>
      <trkpt lat="48.68571" lon="-0.60083">
        <ele>251.544164</ele>
        <time>2024-11-09T21:56:34.723Z</time>
      </trkpt>
      <trkpt lat="48.68571" lon="-0.60146">
        <ele>251.155382</ele>
        <time>2024-11-09T21:57:17.784Z</time>
      </trkpt>
      <trkpt lat="48.68778" lon="-0.60634">
        <ele>255.600012</ele>
        <time>2024-11-09T22:03:58.556Z</time>
      </trkpt>
      <trkpt lat="48.68829" lon="-0.60733">
        <ele>257.328616</ele>
        <time>2024-11-09T22:05:28.661Z</time>
      </trkpt>
      <trkpt lat="48.68898" lon="-0.60806">
        <ele>259.097388</ele>
        <time>2024-11-09T22:06:58.694Z</time>
      </trkpt>
      <trkpt lat="48.68919" lon="-0.60833">
        <ele>259.906043</ele>
        <time>2024-11-09T22:07:28.285Z</time>
      </trkpt>
      <trkpt lat="48.68927" lon="-0.60865">
        <ele>260.576178</ele>
        <time>2024-11-09T22:07:52.818Z</time>
      </trkpt>
      <trkpt lat="48.68929" lon="-0.60904">
        <ele>261.324337</ele>
        <time>2024-11-09T22:08:20.843Z</time>
      </trkpt>
      <trkpt lat="48.68928" lon="-0.6091">
        <ele>261.447538</ele>
        <time>2024-11-09T22:08:25.461Z</time>
      </trkpt>
      <trkpt lat="48.68914" lon="-0.60924">
        <ele>261.92727</ele>
        <time>2024-11-09T22:08:43.588Z</time>
      </trkpt>
      <trkpt lat="48.68859" lon="-0.60958">
        <ele>263.667539</ele>
        <time>2024-11-09T22:09:50.309Z</time>
      </trkpt>
      <trkpt lat="48.68832" lon="-0.6099">
        <ele>264.568575</ele>
        <time>2024-11-09T22:10:29.868Z</time>
      </trkpt>
      <trkpt lat="48.68752" lon="-0.61086">
        <ele>266.77886</ele>
        <time>2024-11-09T22:12:24.938Z</time>
      </trkpt>
      <trkpt lat="48.68782" lon="-0.61157">
        <ele>267.997782</ele>
        <time>2024-11-09T22:13:22.189Z</time>
      </trkpt>
      <trkpt lat="48.68777" lon="-0.6119">
        <ele>267.502668</ele>
        <time>2024-11-09T22:13:45.392Z</time>
      </trkpt>
      <trkpt lat="48.68772" lon="-0.61224">
        <ele>266.438012</ele>
        <time>2024-11-09T22:14:09.389Z</time>
      </trkpt>
      <trkpt lat="48.68752" lon="-0.61258">
        <ele>265.018686</ele>
        <time>2024-11-09T22:14:41.675Z</time>
      </trkpt>
      <trkpt lat="48.68746" lon="-0.61268">
        <ele>264.600987</ele>
        <time>2024-11-09T22:14:51.428Z</time>
      </trkpt>
      <trkpt lat="48.68706" lon="-0.61306">
        <ele>262.367086</ele>
        <time>2024-11-09T22:15:44.576Z</time>
      </trkpt>
      <trkpt lat="48.68675" lon="-0.61281">
        <ele>260.71855</ele>
        <time>2024-11-09T22:16:24.894Z</time>
      </trkpt>
      <trkpt lat="48.68623" lon="-0.61258">
        <ele>257.333346</ele>
        <time>2024-11-09T22:17:27.614Z</time>
      </trkpt>
      <trkpt lat="48.68601" lon="-0.61253">
        <ele>255.735573</ele>
        <time>2024-11-09T22:17:52.999Z</time>
      </trkpt>
      <trkpt lat="48.68571" lon="-0.61265">
        <ele>253.543346</ele>
        <time>2024-11-09T22:18:27.871Z</time>
      </trkpt>
      <trkpt lat="48.68539" lon="-0.61269">
        <ele>251.195886</ele>
        <time>2024-11-09T22:19:05.641Z</time>
      </trkpt>
      <trkpt lat="48.68504" lon="-0.61254">
        <ele>248.600057</ele>
        <time>2024-11-09T22:19:46.850Z</time>
      </trkpt>
      <trkpt lat="48.68443" lon="-0.61242">
        <ele>244.893984</ele>
        <time>2024-11-09T22:20:56.050Z</time>
      </trkpt>
      <trkpt lat="48.68421" lon="-0.61247">
        <ele>243.715568</ele>
        <time>2024-11-09T22:21:21.328Z</time>
      </trkpt>
      <trkpt lat="48.68411" lon="-0.61256">
        <ele>243.147266</ele>
        <time>2024-11-09T22:21:33.465Z</time>
      </trkpt>
      <trkpt lat="48.68401" lon="-0.61252">
        <ele>242.61185</ele>
        <time>2024-11-09T22:21:44.883Z</time>
      </trkpt>
      <trkpt lat="48.68269" lon="-0.61246">
        <ele>236.089573</ele>
        <time>2024-11-09T22:24:09.561Z</time>
      </trkpt>
      <trkpt lat="48.68126" lon="-0.61235">
        <ele>229.990449</ele>
        <time>2024-11-09T22:26:45.480Z</time>
      </trkpt>
      <trkpt lat="48.68115" lon="-0.61266">
        <ele>229.08584</ele>
        <time>2024-11-09T22:27:10.750Z</time>
      </trkpt>
      <trkpt lat="48.68076" lon="-0.6133">
        <ele>226.905037</ele>
        <time>2024-11-09T22:28:12.880Z</time>
      </trkpt>
      <trkpt lat="48.68066" lon="-0.61354">
        <ele>226.183748</ele>
        <time>2024-11-09T22:28:33.337Z</time>
      </trkpt>
      <trkpt lat="48.6804" lon="-0.61358">
        <ele>225.229868</ele>
        <time>2024-11-09T22:29:00.275Z</time>
      </trkpt>
      <trkpt lat="48.67969" lon="-0.61406">
        <ele>222.245412</ele>
        <time>2024-11-09T22:30:24.342Z</time>
      </trkpt>
      <trkpt lat="48.67953" lon="-0.61412">
        <ele>221.569696</ele>
        <time>2024-11-09T22:30:42.757Z</time>
      </trkpt>
      <trkpt lat="48.67888" lon="-0.61432">
        <ele>218.960591</ele>
        <time>2024-11-09T22:31:53.713Z</time>
      </trkpt>
      <trkpt lat="48.67817" lon="-0.61447">
        <ele>216.109725</ele>
        <time>2024-11-09T22:33:11.537Z</time>
      </trkpt>
      <trkpt lat="48.678" lon="-0.61449">
        <ele>215.498068</ele>
        <time>2024-11-09T22:33:29.988Z</time>
      </trkpt>
      <trkpt lat="48.67732" lon="-0.61455">
        <ele>213.156754</ele>
        <time>2024-11-09T22:34:44.227Z</time>
      </trkpt>
      <trkpt lat="48.67654" lon="-0.61458">
        <ele>210.488225</ele>
        <time>2024-11-09T22:36:07.473Z</time>
      </trkpt>
      <trkpt lat="48.67649" lon="-0.61457">
        <ele>210.324594</ele>
        <time>2024-11-09T22:36:12.531Z</time>
      </trkpt>
      <trkpt lat="48.67649" lon="-0.61457">
        <ele>210.324594</ele>
        <time>2024-11-09T22:36:12.541Z</time>
      </trkpt>
      <trkpt lat="48.67604" lon="-0.61436">
        <ele>208.735642</ele>
        <time>2024-11-09T22:36:59.311Z</time>
      </trkpt>
      <trkpt lat="48.6756" lon="-0.61416">
        <ele>207.154202</ele>
        <time>2024-11-09T22:37:45.983Z</time>
      </trkpt>
      <trkpt lat="48.67514" lon="-0.61381">
        <ele>205.411272</ele>
        <time>2024-11-09T22:38:37.431Z</time>
      </trkpt>
      <trkpt lat="48.67468" lon="-0.61346">
        <ele>203.671361</ele>
        <time>2024-11-09T22:39:28.801Z</time>
      </trkpt>
      <trkpt lat="48.67433" lon="-0.61357">
        <ele>201.894993</ele>
        <time>2024-11-09T22:40:09.467Z</time>
      </trkpt>
      <trkpt lat="48.67391" lon="-0.61397">
        <ele>199.479999</ele>
        <time>2024-11-09T22:41:04.854Z</time>
      </trkpt>
      <trkpt lat="48.67374" lon="-0.61406">
        <ele>198.592623</ele>
        <time>2024-11-09T22:41:25.290Z</time>
      </trkpt>
      <trkpt lat="48.67374" lon="-0.61406">
        <ele>198.592623</ele>
        <time>2024-11-09T22:41:25.320Z</time>
      </trkpt>
      <trkpt lat="48.67374" lon="-0.61406">
        <ele>198.589363</ele>
        <time>2024-11-09T22:41:25.387Z</time>
      </trkpt>
      <trkpt lat="48.67339" lon="-0.61406">
        <ele>196.83227</ele>
        <time>2024-11-09T22:42:01.080Z</time>
      </trkpt>
      <trkpt lat="48.67307" lon="-0.61466">
        <ele>194.978746</ele>
        <time>2024-11-09T22:42:56.495Z</time>
      </trkpt>
      <trkpt lat="48.673" lon="-0.61478">
        <ele>195.250665</ele>
        <time>2024-11-09T22:43:07.669Z</time>
      </trkpt>
      <trkpt lat="48.67246" lon="-0.61565">
        <ele>197.211028</ele>
        <time>2024-11-09T22:44:30.621Z</time>
      </trkpt>
      <trkpt lat="48.67256" lon="-0.61584">
        <ele>197.606539</ele>
        <time>2024-11-09T22:44:48.980Z</time>
      </trkpt>
      <trkpt lat="48.67268" lon="-0.61635">
        <ele>198.497278</ele>
        <time>2024-11-09T22:45:31.374Z</time>
      </trkpt>
      <trkpt lat="48.67269" lon="-0.61643">
        <ele>198.634735</ele>
        <time>2024-11-09T22:45:37.986Z</time>
      </trkpt>
      <trkpt lat="48.67268" lon="-0.61671">
        <ele>199.095323</ele>
        <time>2024-11-09T22:46:00.325Z</time>
      </trkpt>
      <trkpt lat="48.67267" lon="-0.61721">
        <ele>200.725627</ele>
        <time>2024-11-09T22:46:41.562Z</time>
      </trkpt>
      <trkpt lat="48.67256" lon="-0.61749">
        <ele>201.859873</ele>
        <time>2024-11-09T22:47:07.439Z</time>
      </trkpt>
      <trkpt lat="48.67216" lon="-0.61858">
        <ele>206.377626</ele>
        <time>2024-11-09T22:48:46.532Z</time>
      </trkpt>
      <trkpt lat="48.67214" lon="-0.61864">
        <ele>206.629966</ele>
        <time>2024-11-09T22:48:51.896Z</time>
      </trkpt>
      <trkpt lat="48.67197" lon="-0.61922">
        <ele>208.891202</ele>
        <time>2024-11-09T22:49:39.969Z</time>
      </trkpt>
      <trkpt lat="48.67163" lon="-0.62159">
        <ele>215.131348</ele>
        <time>2024-11-09T22:52:41.905Z</time>
      </trkpt>
      <trkpt lat="48.67152" lon="-0.62205">
        <ele>216.313826</ele>
        <time>2024-11-09T22:53:18.000Z</time>
      </trkpt>
      <trkpt lat="48.6715" lon="-0.62233">
        <ele>216.907429</ele>
        <time>2024-11-09T22:53:38.886Z</time>
      </trkpt>
      <trkpt lat="48.67129" lon="-0.62355">
        <ele>219.532148</ele>
        <time>2024-11-09T22:55:10.759Z</time>
      </trkpt>
      <trkpt lat="48.67126" lon="-0.62402">
        <ele>220.523138</ele>
        <time>2024-11-09T22:55:45.578Z</time>
      </trkpt>
      <trkpt lat="48.67125" lon="-0.62464">
        <ele>221.775449</ele>
        <time>2024-11-09T22:56:31.294Z</time>
      </trkpt>
      <trkpt lat="48.67131" lon="-0.62534">
        <ele>222.606476</ele>
        <time>2024-11-09T22:57:22.735Z</time>
      </trkpt>
      <trkpt lat="48.67159" lon="-0.62635">
        <ele>223.890603</ele>
        <time>2024-11-09T22:58:40.010Z</time>
      </trkpt>
      <trkpt lat="48.6717" lon="-0.62688">
        <ele>224.556894</ele>
        <time>2024-11-09T22:59:18.822Z</time>
      </trkpt>
      <trkpt lat="48.67181" lon="-0.62763">
        <ele>224.523261</ele>
        <time>2024-11-09T23:00:10.180Z</time>
      </trkpt>
      <trkpt lat="48.67195" lon="-0.63007">
        <ele>222.063025</ele>
        <time>2024-11-09T23:02:57.316Z</time>
      </trkpt>
      <trkpt lat="48.67138" lon="-0.63012">
        <ele>219.715838</ele>
        <time>2024-11-09T23:03:59.371Z</time>
      </trkpt>
      <trkpt lat="48.67037" lon="-0.63049">
        <ele>215.487227</ele>
        <time>2024-11-09T23:05:53.625Z</time>
      </trkpt>
      <trkpt lat="48.66999" lon="-0.63068">
        <ele>214.888166</ele>
        <time>2024-11-09T23:06:37.774Z</time>
      </trkpt>
      <trkpt lat="48.66971" lon="-0.63086">
        <ele>214.601175</ele>
        <time>2024-11-09T23:07:10.253Z</time>
      </trkpt>
      <trkpt lat="48.66896" lon="-0.63152">
        <ele>213.788521</ele>
        <time>2024-11-09T23:08:37.207Z</time>
      </trkpt>
      <trkpt lat="48.66871" lon="-0.63168">
        <ele>213.531649</ele>
        <time>2024-11-09T23:09:06.516Z</time>
      </trkpt>
      <trkpt lat="48.66823" lon="-0.63173">
        <ele>215.291792</ele>
        <time>2024-11-09T23:10:01.099Z</time>
      </trkpt>
      <trkpt lat="48.66789" lon="-0.63204">
        <ele>216.817025</ele>
        <time>2024-11-09T23:10:46.923Z</time>
      </trkpt>
      <trkpt lat="48.66763" lon="-0.63212">
        <ele>217.820056</ele>
        <time>2024-11-09T23:11:17.334Z</time>
      </trkpt>
      <trkpt lat="48.66741" lon="-0.63207">
        <ele>218.71028</ele>
        <time>2024-11-09T23:11:44.134Z</time>
      </trkpt>
      <trkpt lat="48.66684" lon="-0.63224">
        <ele>220.944083</ele>
        <time>2024-11-09T23:12:50.476Z</time>
      </trkpt>
      <trkpt lat="48.66668" lon="-0.63219">
        <ele>221.565911</ele>
        <time>2024-11-09T23:13:08.977Z</time>
      </trkpt>
      <trkpt lat="48.66601" lon="-0.63246">
        <ele>224.187128</ele>
        <time>2024-11-09T23:14:26.304Z</time>
      </trkpt>
      <trkpt lat="48.66581" lon="-0.63264">
        <ele>225.055045</ele>
        <time>2024-11-09T23:14:51.826Z</time>
      </trkpt>
      <trkpt lat="48.66563" lon="-0.63294">
        <ele>226.079315</ele>
        <time>2024-11-09T23:15:22.369Z</time>
      </trkpt>
      <trkpt lat="48.66524" lon="-0.63391">
        <ele>229.584639</ele>
        <time>2024-11-09T23:16:48.976Z</time>
      </trkpt>
      <trkpt lat="48.66501" lon="-0.63475">
        <ele>232.752382</ele>
        <time>2024-11-09T23:18:00.438Z</time>
      </trkpt>
      <trkpt lat="48.66339" lon="-0.63748">
        <ele>244.259505</ele>
        <time>2024-11-09T23:22:50.764Z</time>
      </trkpt>
      <trkpt lat="48.66215" lon="-0.6388">
        <ele>243.532884</ele>
        <time>2024-11-09T23:25:26.515Z</time>
      </trkpt>
      <trkpt lat="48.66151" lon="-0.63911">
        <ele>242.783928</ele>
        <time>2024-11-09T23:26:37.457Z</time>
      </trkpt>
      <trkpt lat="48.66084" lon="-0.63914">
        <ele>241.884514</ele>
        <time>2024-11-09T23:27:47.062Z</time>
      </trkpt>
      <trkpt lat="48.65921" lon="-0.63935">
        <ele>241.300412</ele>
        <time>2024-11-09T23:30:32.932Z</time>
      </trkpt>
      <trkpt lat="48.65832" lon="-0.63932">
        <ele>241.989699</ele>
        <time>2024-11-09T23:32:05.621Z</time>
      </trkpt>
      <trkpt lat="48.65759" lon="-0.63948">
        <ele>244.261658</ele>
        <time>2024-11-09T23:33:29.601Z</time>
      </trkpt>
      <trkpt lat="48.65721" lon="-0.63946">
        <ele>245.64624</ele>
        <time>2024-11-09T23:34:14.017Z</time>
      </trkpt>
      <trkpt lat="48.65655" lon="-0.6393">
        <ele>248.056092</ele>
        <time>2024-11-09T23:35:30.764Z</time>
      </trkpt>
      <trkpt lat="48.65596" lon="-0.63944">
        <ele>248.252306</ele>
        <time>2024-11-09T23:36:36.039Z</time>
      </trkpt>
      <trkpt lat="48.65546" lon="-0.6393">
        <ele>247.781252</ele>
        <time>2024-11-09T23:37:27.437Z</time>
      </trkpt>
      <trkpt lat="48.65333" lon="-0.63817">
        <ele>243.765282</ele>
        <time>2024-11-09T23:41:29.805Z</time>
      </trkpt>
      <trkpt lat="48.6532" lon="-0.63831">
        <ele>243.394718</ele>
        <time>2024-11-09T23:41:46.109Z</time>
      </trkpt>
      <trkpt lat="48.65317" lon="-0.63869">
        <ele>242.883953</ele>
        <time>2024-11-09T23:42:11.763Z</time>
      </trkpt>
      <trkpt lat="48.653" lon="-0.63978">
        <ele>243.43053</ele>
        <time>2024-11-09T23:43:30.576Z</time>
      </trkpt>
      <trkpt lat="48.65166" lon="-0.63939">
        <ele>244.112452</ele>
        <time>2024-11-09T23:45:50.087Z</time>
      </trkpt>
      <trkpt lat="48.65151" lon="-0.63923">
        <ele>244.068791</ele>
        <time>2024-11-09T23:46:09.306Z</time>
      </trkpt>
      <trkpt lat="48.65133" lon="-0.63913">
        <ele>244.025746</ele>
        <time>2024-11-09T23:46:28.229Z</time>
      </trkpt>
      <trkpt lat="48.6489" lon="-0.63825">
        <ele>243.193603</ele>
        <time>2024-11-09T23:50:40.635Z</time>
      </trkpt>
      <trkpt lat="48.64841" lon="-0.63804">
        <ele>242.987963</ele>
        <time>2024-11-09T23:51:31.964Z</time>
      </trkpt>
      <trkpt lat="48.64702" lon="-0.63729">
        <ele>242.447484</ele>
        <time>2024-11-09T23:54:00.314Z</time>
      </trkpt>
      <trkpt lat="48.64567" lon="-0.63663">
        <ele>241.26054</ele>
        <time>2024-11-09T23:56:24.893Z</time>
      </trkpt>
      <trkpt lat="48.64524" lon="-0.63647">
        <ele>240.856383</ele>
        <time>2024-11-09T23:57:10.141Z</time>
      </trkpt>
      <trkpt lat="48.64498" lon="-0.63641">
        <ele>240.579595</ele>
        <time>2024-11-09T23:57:37.585Z</time>
      </trkpt>
      <trkpt lat="48.64474" lon="-0.63643">
        <ele>240.294054</ele>
        <time>2024-11-09T23:58:02.096Z</time>
      </trkpt>
      <trkpt lat="48.64374" lon="-0.63673">
        <ele>239.074672</ele>
        <time>2024-11-09T23:59:46.585Z</time>
      </trkpt>
      <trkpt lat="48.64348" lon="-0.63679">
        <ele>238.756456</ele>
        <time>2024-11-10T00:00:13.706Z</time>
      </trkpt>
      <trkpt lat="48.64332" lon="-0.63683">
        <ele>238.560433</ele>
        <time>2024-11-10T00:00:30.429Z</time>
      </trkpt>
      <trkpt lat="48.64333" lon="-0.63693">
        <ele>238.473692</ele>
        <time>2024-11-10T00:00:37.362Z</time>
      </trkpt>
      <trkpt lat="48.64306" lon="-0.63695">
        <ele>238.129627</ele>
        <time>2024-11-10T00:01:04.881Z</time>
      </trkpt>
      <trkpt lat="48.64264" lon="-0.63701">
        <ele>237.589259</ele>
        <time>2024-11-10T00:01:48.126Z</time>
      </trkpt>
      <trkpt lat="48.64263" lon="-0.63692">
        <ele>237.51287</ele>
        <time>2024-11-10T00:01:54.205Z</time>
      </trkpt>
      <trkpt lat="48.64257" lon="-0.63693">
        <ele>237.434538</ele>
        <time>2024-11-10T00:02:00.445Z</time>
      </trkpt>
      <trkpt lat="48.64236" lon="-0.63695">
        <ele>237.157604</ele>
        <time>2024-11-10T00:02:22.672Z</time>
      </trkpt>
      <trkpt lat="48.64209" lon="-0.63699">
        <ele>236.822569</ele>
        <time>2024-11-10T00:02:49.697Z</time>
      </trkpt>
      <trkpt lat="48.64119" lon="-0.63692">
        <ele>235.682777</ele>
        <time>2024-11-10T00:04:22.990Z</time>
      </trkpt>
      <trkpt lat="48.63983" lon="-0.63666">
        <ele>234.023432</ele>
        <time>2024-11-10T00:06:44.502Z</time>
      </trkpt>
      <trkpt lat="48.63965" lon="-0.63663">
        <ele>234.048393</ele>
        <time>2024-11-10T00:07:03.232Z</time>
      </trkpt>
      <trkpt lat="48.6383" lon="-0.63632">
        <ele>234.23262</ele>
        <time>2024-11-10T00:09:20.649Z</time>
      </trkpt>
      <trkpt lat="48.63783" lon="-0.63634">
        <ele>234.404909</ele>
        <time>2024-11-10T00:10:09.781Z</time>
      </trkpt>
      <trkpt lat="48.63754" lon="-0.63631">
        <ele>234.561702</ele>
        <time>2024-11-10T00:10:39.473Z</time>
      </trkpt>
      <trkpt lat="48.63712" lon="-0.63618">
        <ele>234.793384</ele>
        <time>2024-11-10T00:11:23.332Z</time>
      </trkpt>
      <trkpt lat="48.63422" lon="-0.63472">
        <ele>236.261454</ele>
        <time>2024-11-10T00:16:32.387Z</time>
      </trkpt>
      <trkpt lat="48.63407" lon="-0.63459">
        <ele>236.446501</ele>
        <time>2024-11-10T00:16:50.329Z</time>
      </trkpt>
      <trkpt lat="48.63335" lon="-0.63491">
        <ele>237.23633</ele>
        <time>2024-11-10T00:18:08.116Z</time>
      </trkpt>
      <trkpt lat="48.63323" lon="-0.63481">
        <ele>237.376037</ele>
        <time>2024-11-10T00:18:22.105Z</time>
      </trkpt>
      <trkpt lat="48.63271" lon="-0.63484">
        <ele>238.112411</ele>
        <time>2024-11-10T00:19:18.182Z</time>
      </trkpt>
      <trkpt lat="48.63202" lon="-0.63477">
        <ele>239.387974</ele>
        <time>2024-11-10T00:20:32.496Z</time>
      </trkpt>
      <trkpt lat="48.63085" lon="-0.63445">
        <ele>240.934696</ele>
        <time>2024-11-10T00:22:39.539Z</time>
      </trkpt>
      <trkpt lat="48.6291" lon="-0.63362">
        <ele>239.212164</ele>
        <time>2024-11-10T00:25:46.198Z</time>
      </trkpt>
      <trkpt lat="48.62668" lon="-0.63242">
        <ele>229.859983</ele>
        <time>2024-11-10T00:30:23.770Z</time>
      </trkpt>
      <trkpt lat="48.62551" lon="-0.63176">
        <ele>225.244947</ele>
        <time>2024-11-10T00:32:37.596Z</time>
      </trkpt>
      <trkpt lat="48.62468" lon="-0.63101">
        <ele>221.987171</ele>
        <time>2024-11-10T00:34:21.265Z</time>
      </trkpt>
      <trkpt lat="48.6229" lon="-0.62981">
        <ele>216.770216</ele>
        <time>2024-11-10T00:37:47.421Z</time>
      </trkpt>
      <trkpt lat="48.61955" lon="-0.62813">
        <ele>214.010877</ele>
        <time>2024-11-10T00:43:45.090Z</time>
      </trkpt>
      <trkpt lat="48.61877" lon="-0.62771">
        <ele>213.336503</ele>
        <time>2024-11-10T00:45:09.181Z</time>
      </trkpt>
      <trkpt lat="48.61799" lon="-0.62749">
        <ele>212.632936</ele>
        <time>2024-11-10T00:46:30.201Z</time>
      </trkpt>
      <trkpt lat="48.61359" lon="-0.62668">
        <ele>207.415349</ele>
        <time>2024-11-10T00:54:01.992Z</time>
      </trkpt>
      <trkpt lat="48.61219" lon="-0.62681">
        <ele>202.051691</ele>
        <time>2024-11-10T00:56:35.473Z</time>
      </trkpt>
      <trkpt lat="48.61154" lon="-0.62682">
        <ele>197.586943</ele>
        <time>2024-11-10T00:57:49.336Z</time>
      </trkpt>
      <trkpt lat="48.61115" lon="-0.62691">
        <ele>194.894942</ele>
        <time>2024-11-10T00:58:34.461Z</time>
      </trkpt>
      <trkpt lat="48.60911" lon="-0.62769">
        <ele>180.307562</ele>
        <time>2024-11-10T01:02:36.655Z</time>
      </trkpt>
      <trkpt lat="48.60864" lon="-0.62772">
        <ele>177.151578</ele>
        <time>2024-11-10T01:03:28.781Z</time>
      </trkpt>
      <trkpt lat="48.60762" lon="-0.6273">
        <ele>171.476975</ele>
        <time>2024-11-10T01:05:24.744Z</time>
      </trkpt>
      <trkpt lat="48.6071" lon="-0.62696">
        <ele>168.439557</ele>
        <time>2024-11-10T01:06:27.450Z</time>
      </trkpt>
      <trkpt lat="48.60665" lon="-0.62654">
        <ele>164.900463</ele>
        <time>2024-11-10T01:07:26.983Z</time>
      </trkpt>
      <trkpt lat="48.6062" lon="-0.62577">
        <ele>160.082199</ele>
        <time>2024-11-10T01:08:45.087Z</time>
      </trkpt>
      <trkpt lat="48.60598" lon="-0.62504">
        <ele>156.345777</ele>
        <time>2024-11-10T01:09:46.277Z</time>
      </trkpt>
      <trkpt lat="48.60578" lon="-0.62381">
        <ele>151.005537</ele>
        <time>2024-11-10T01:11:22.864Z</time>
      </trkpt>
      <trkpt lat="48.60541" lon="-0.62384">
        <ele>148.698671</ele>
        <time>2024-11-10T01:12:05.046Z</time>
      </trkpt>
      <trkpt lat="48.60533" lon="-0.62392">
        <ele>148.12128</ele>
        <time>2024-11-10T01:12:15.528Z</time>
      </trkpt>
      <trkpt lat="48.60523" lon="-0.62449">
        <ele>145.72497</ele>
        <time>2024-11-10T01:12:58.536Z</time>
      </trkpt>
      <trkpt lat="48.60516" lon="-0.62549">
        <ele>143.289746</ele>
        <time>2024-11-10T01:14:10.803Z</time>
      </trkpt>
      <trkpt lat="48.60511" lon="-0.62557">
        <ele>143.165848</ele>
        <time>2024-11-10T01:14:18.113Z</time>
      </trkpt>
      <trkpt lat="48.60503" lon="-0.62562">
        <ele>143.011967</ele>
        <time>2024-11-10T01:14:27.230Z</time>
      </trkpt>
      <trkpt lat="48.60505" lon="-0.62514">
        <ele>142.446464</ele>
        <time>2024-11-10T01:15:00.205Z</time>
      </trkpt>
      <trkpt lat="48.60521" lon="-0.62079">
        <ele>140.027161</ele>
        <time>2024-11-10T01:19:51.091Z</time>
      </trkpt>
      <trkpt lat="48.60535" lon="-0.61927">
        <ele>139.959716</ele>
        <time>2024-11-10T01:21:32.902Z</time>
      </trkpt>
      <trkpt lat="48.60563" lon="-0.6179">
        <ele>139.962387</ele>
        <time>2024-11-10T01:23:08.169Z</time>
      </trkpt>
      <trkpt lat="48.60668" lon="-0.61412">
        <ele>140.499758</ele>
        <time>2024-11-10T01:27:41.032Z</time>
      </trkpt>
      <trkpt lat="48.60744" lon="-0.61115">
        <ele>141.223736</ele>
        <time>2024-11-10T01:31:14.943Z</time>
      </trkpt>
      <trkpt lat="48.60834" lon="-0.60822">
        <ele>141.886059</ele>
        <time>2024-11-10T01:34:50.257Z</time>
      </trkpt>
      <trkpt lat="48.60966" lon="-0.60466">
        <ele>144.32444</ele>
        <time>2024-11-10T01:39:29.318Z</time>
      </trkpt>
      <trkpt lat="48.6106" lon="-0.60172">
        <ele>146.937406</ele>
        <time>2024-11-10T01:43:14.428Z</time>
      </trkpt>
      <trkpt lat="48.61073" lon="-0.60133">
        <ele>147.316261</ele>
        <time>2024-11-10T01:43:45.181Z</time>
      </trkpt>
      <trkpt lat="48.61128" lon="-0.60014">
        <ele>148.580446</ele>
        <time>2024-11-10T01:45:26.194Z</time>
      </trkpt>
      <trkpt lat="48.61173" lon="-0.59947">
        <ele>149.420455</ele>
        <time>2024-11-10T01:46:32.304Z</time>
      </trkpt>
      <trkpt lat="48.61237" lon="-0.59873">
        <ele>150.004411</ele>
        <time>2024-11-10T01:47:56.151Z</time>
      </trkpt>
      <trkpt lat="48.61283" lon="-0.59839">
        <ele>150.082892</ele>
        <time>2024-11-10T01:48:48.350Z</time>
      </trkpt>
      <trkpt lat="48.6135" lon="-0.59808">
        <ele>150.189872</ele>
        <time>2024-11-10T01:49:58.338Z</time>
      </trkpt>
      <trkpt lat="48.61406" lon="-0.59791">
        <ele>149.91679</ele>
        <time>2024-11-10T01:50:57.655Z</time>
      </trkpt>
      <trkpt lat="48.61528" lon="-0.59784">
        <ele>149.017406</ele>
        <time>2024-11-10T01:53:03.132Z</time>
      </trkpt>
      <trkpt lat="48.61541" lon="-0.59785">
        <ele>148.923526</ele>
        <time>2024-11-10T01:53:16.157Z</time>
      </trkpt>
      <trkpt lat="48.61576" lon="-0.59784">
        <ele>149.830525</ele>
        <time>2024-11-10T01:53:53.297Z</time>
      </trkpt>
      <trkpt lat="48.61596" lon="-0.59781">
        <ele>150.448461</ele>
        <time>2024-11-10T01:54:15.151Z</time>
      </trkpt>
      <trkpt lat="48.61648" lon="-0.59767">
        <ele>152.079777</ele>
        <time>2024-11-10T01:55:14.967Z</time>
      </trkpt>
      <trkpt lat="48.61701" lon="-0.59744">
        <ele>153.788422</ele>
        <time>2024-11-10T01:56:19.265Z</time>
      </trkpt>
      <trkpt lat="48.61776" lon="-0.59691">
        <ele>156.354847</ele>
        <time>2024-11-10T01:57:53.146Z</time>
      </trkpt>
      <trkpt lat="48.61822" lon="-0.59646">
        <ele>158.04828</ele>
        <time>2024-11-10T01:58:52.823Z</time>
      </trkpt>
      <trkpt lat="48.61815" lon="-0.59637">
        <ele>158.313484</ele>
        <time>2024-11-10T01:59:02.129Z</time>
      </trkpt>
      <trkpt lat="48.61809" lon="-0.5964">
        <ele>158.520224</ele>
        <time>2024-11-10T01:59:09.083Z</time>
      </trkpt>
      <trkpt lat="48.61792" lon="-0.59664">
        <ele>159.251087</ele>
        <time>2024-11-10T01:59:34.271Z</time>
      </trkpt>
      <trkpt lat="48.61701" lon="-0.5971">
        <ele>164.380386</ele>
        <time>2024-11-10T02:01:21.448Z</time>
      </trkpt>
      <trkpt lat="48.61682" lon="-0.59703">
        <ele>165.536389</ele>
        <time>2024-11-10T02:01:43.907Z</time>
      </trkpt>
      <trkpt lat="48.61669" lon="-0.59682">
        <ele>166.707538</ele>
        <time>2024-11-10T02:02:07.054Z</time>
      </trkpt>
      <trkpt lat="48.61641" lon="-0.5952">
        <ele>174.355048</ele>
        <time>2024-11-10T02:04:32.172Z</time>
      </trkpt>
      <trkpt lat="48.61632" lon="-0.59474">
        <ele>176.963711</ele>
        <time>2024-11-10T02:05:14.990Z</time>
      </trkpt>
      <trkpt lat="48.61625" lon="-0.59429">
        <ele>179.521613</ele>
        <time>2024-11-10T02:05:56.083Z</time>
      </trkpt>
      <trkpt lat="48.61614" lon="-0.59385">
        <ele>182.048321</ele>
        <time>2024-11-10T02:06:35.482Z</time>
      </trkpt>
      <trkpt lat="48.61594" lon="-0.5933">
        <ele>185.524586</ele>
        <time>2024-11-10T02:07:27.543Z</time>
      </trkpt>
      <trkpt lat="48.61588" lon="-0.59327">
        <ele>185.949062</ele>
        <time>2024-11-10T02:07:35.732Z</time>
      </trkpt>
      <trkpt lat="48.61579" lon="-0.59326">
        <ele>186.079052</ele>
        <time>2024-11-10T02:07:46.267Z</time>
      </trkpt>
      <trkpt lat="48.61502" lon="-0.59365">
        <ele>187.253624</ele>
        <time>2024-11-10T02:09:13.920Z</time>
      </trkpt>
      <trkpt lat="48.61478" lon="-0.59374">
        <ele>187.619565</ele>
        <time>2024-11-10T02:09:39.399Z</time>
      </trkpt>
      <trkpt lat="48.61439" lon="-0.5938">
        <ele>188.198762</ele>
        <time>2024-11-10T02:10:20.389Z</time>
      </trkpt>
      <trkpt lat="48.61398" lon="-0.59365">
        <ele>188.825368</ele>
        <time>2024-11-10T02:11:03.118Z</time>
      </trkpt>
      <trkpt lat="48.6138" lon="-0.59367">
        <ele>189.110027</ele>
        <time>2024-11-10T02:11:21.646Z</time>
      </trkpt>
      <trkpt lat="48.61363" lon="-0.59372">
        <ele>189.377355</ele>
        <time>2024-11-10T02:11:38.746Z</time>
      </trkpt>
      <trkpt lat="48.61358" lon="-0.5937">
        <ele>189.461797</ele>
        <time>2024-11-10T02:11:44.239Z</time>
      </trkpt>
      <trkpt lat="48.61328" lon="-0.59327">
        <ele>190.110834</ele>
        <time>2024-11-10T02:12:27.068Z</time>
      </trkpt>
      <trkpt lat="48.61324" lon="-0.59322">
        <ele>190.188934</ele>
        <time>2024-11-10T02:12:32.410Z</time>
      </trkpt>
      <trkpt lat="48.61319" lon="-0.59298">
        <ele>190.451433</ele>
        <time>2024-11-10T02:12:50.588Z</time>
      </trkpt>
      <trkpt lat="48.61309" lon="-0.59231">
        <ele>191.159212</ele>
        <time>2024-11-10T02:13:41.308Z</time>
      </trkpt>
      <trkpt lat="48.6129" lon="-0.59152">
        <ele>192.91037</ele>
        <time>2024-11-10T02:14:46.661Z</time>
      </trkpt>
      <trkpt lat="48.61291" lon="-0.59113">
        <ele>193.830577</ele>
        <time>2024-11-10T02:15:16.355Z</time>
      </trkpt>
      <trkpt lat="48.61271" lon="-0.58959">
        <ele>197.59801</ele>
        <time>2024-11-10T02:17:13.694Z</time>
      </trkpt>
      <trkpt lat="48.61253" lon="-0.5883">
        <ele>198.833996</ele>
        <time>2024-11-10T02:18:45.271Z</time>
      </trkpt>
      <trkpt lat="48.61251" lon="-0.5882">
        <ele>198.916778</ele>
        <time>2024-11-10T02:18:52.325Z</time>
      </trkpt>
      <trkpt lat="48.6125" lon="-0.58802">
        <ele>199.062381</ele>
        <time>2024-11-10T02:19:04.658Z</time>
      </trkpt>
      <trkpt lat="48.61248" lon="-0.58782">
        <ele>199.22391</ele>
        <time>2024-11-10T02:19:18.261Z</time>
      </trkpt>
      <trkpt lat="48.61236" lon="-0.58738">
        <ele>199.601548</ele>
        <time>2024-11-10T02:19:50.076Z</time>
      </trkpt>
      <trkpt lat="48.6122" lon="-0.58659">
        <ele>200.376563</ele>
        <time>2024-11-10T02:20:45.680Z</time>
      </trkpt>
      <trkpt lat="48.61223" lon="-0.5848">
        <ele>202.565678</ele>
        <time>2024-11-10T02:22:51.306Z</time>
      </trkpt>
      <trkpt lat="48.61223" lon="-0.58466">
        <ele>202.740755</ele>
        <time>2024-11-10T02:23:01.659Z</time>
      </trkpt>
      <trkpt lat="48.61207" lon="-0.58311">
        <ele>205.889917</ele>
        <time>2024-11-10T02:24:56.385Z</time>
      </trkpt>
      <trkpt lat="48.61194" lon="-0.58245">
        <ele>207.55626</ele>
        <time>2024-11-10T02:25:48.286Z</time>
      </trkpt>
      <trkpt lat="48.6117" lon="-0.58144">
        <ele>210.150163</ele>
        <time>2024-11-10T02:27:09.525Z</time>
      </trkpt>
      <trkpt lat="48.61159" lon="-0.58075">
        <ele>211.969427</ele>
        <time>2024-11-10T02:28:03.365Z</time>
      </trkpt>
      <trkpt lat="48.61158" lon="-0.57977">
        <ele>214.504454</ele>
        <time>2024-11-10T02:29:17.887Z</time>
      </trkpt>
      <trkpt lat="48.61171" lon="-0.57917">
        <ele>216.132997</ele>
        <time>2024-11-10T02:30:05.510Z</time>
      </trkpt>
      <trkpt lat="48.61189" lon="-0.57773">
        <ele>218.497985</ele>
        <time>2024-11-10T02:31:52.508Z</time>
      </trkpt>
      <trkpt lat="48.61238" lon="-0.57568">
        <ele>220.681284</ele>
        <time>2024-11-10T02:34:23.361Z</time>
      </trkpt>
      <trkpt lat="48.6134" lon="-0.57302">
        <ele>220.310264</ele>
        <time>2024-11-10T02:37:48.093Z</time>
      </trkpt>
      <trkpt lat="48.61352" lon="-0.57264">
        <ele>220.058964</ele>
        <time>2024-11-10T02:38:16.429Z</time>
      </trkpt>
      <trkpt lat="48.61371" lon="-0.57231">
        <ele>219.796576</ele>
        <time>2024-11-10T02:38:46.182Z</time>
      </trkpt>
      <trkpt lat="48.61412" lon="-0.57031">
        <ele>218.97313</ele>
        <time>2024-11-10T02:41:09.821Z</time>
      </trkpt>
      <trkpt lat="48.61435" lon="-0.56965">
        <ele>218.790692</ele>
        <time>2024-11-10T02:41:59.848Z</time>
      </trkpt>
      <trkpt lat="48.61477" lon="-0.56894">
        <ele>218.909629</ele>
        <time>2024-11-10T02:43:05.665Z</time>
      </trkpt>
      <trkpt lat="48.61502" lon="-0.56821">
        <ele>220.273772</ele>
        <time>2024-11-10T02:44:06.462Z</time>
      </trkpt>
      <trkpt lat="48.61548" lon="-0.56738">
        <ele>222.031175</ele>
        <time>2024-11-10T02:45:25.050Z</time>
      </trkpt>
      <trkpt lat="48.61544" lon="-0.5671">
        <ele>222.513581</ele>
        <time>2024-11-10T02:45:46.513Z</time>
      </trkpt>
      <trkpt lat="48.61501" lon="-0.56579">
        <ele>223.331648</ele>
        <time>2024-11-10T02:47:29.236Z</time>
      </trkpt>
      <trkpt lat="48.6148" lon="-0.56517">
        <ele>223.492572</ele>
        <time>2024-11-10T02:48:15.186Z</time>
      </trkpt>
      <trkpt lat="48.61446" lon="-0.56287">
        <ele>223.401004</ele>
        <time>2024-11-10T02:50:55.754Z</time>
      </trkpt>
      <trkpt lat="48.61517" lon="-0.56279">
        <ele>223.178366</ele>
        <time>2024-11-10T02:52:07.156Z</time>
      </trkpt>
      <trkpt lat="48.6154" lon="-0.56287">
        <ele>223.294798</ele>
        <time>2024-11-10T02:52:31.719Z</time>
      </trkpt>
      <trkpt lat="48.61579" lon="-0.56341">
        <ele>224.108932</ele>
        <time>2024-11-10T02:53:28.050Z</time>
      </trkpt>
      <trkpt lat="48.61745" lon="-0.5643">
        <ele>226.319354</ele>
        <time>2024-11-10T02:56:35.044Z</time>
      </trkpt>
      <trkpt lat="48.61777" lon="-0.56438">
        <ele>226.54586</ele>
        <time>2024-11-10T02:57:09.243Z</time>
      </trkpt>
      <trkpt lat="48.61854" lon="-0.56446">
        <ele>227.071715</ele>
        <time>2024-11-10T02:58:26.196Z</time>
      </trkpt>
      <trkpt lat="48.61866" lon="-0.56466">
        <ele>227.109339</ele>
        <time>2024-11-10T02:58:44.660Z</time>
      </trkpt>
      <trkpt lat="48.61918" lon="-0.56386">
        <ele>226.729866</ele>
        <time>2024-11-10T03:00:00.187Z</time>
      </trkpt>
      <trkpt lat="48.6196" lon="-0.56301">
        <ele>226.370504</ele>
        <time>2024-11-10T03:01:12.039Z</time>
      </trkpt>
      <trkpt lat="48.62039" lon="-0.56157">
        <ele>227.835852</ele>
        <time>2024-11-10T03:03:17.820Z</time>
      </trkpt>
      <trkpt lat="48.62083" lon="-0.56083">
        <ele>228.950751</ele>
        <time>2024-11-10T03:04:30.589Z</time>
      </trkpt>
      <trkpt lat="48.62119" lon="-0.56056">
        <ele>229.714497</ele>
        <time>2024-11-10T03:05:16.480Z</time>
      </trkpt>
      <trkpt lat="48.62224" lon="-0.56013">
        <ele>231.995457</ele>
        <time>2024-11-10T03:07:17.171Z</time>
      </trkpt>
      <trkpt lat="48.6229" lon="-0.55966">
        <ele>232.780351</ele>
        <time>2024-11-10T03:08:29.613Z</time>
      </trkpt>
      <trkpt lat="48.62331" lon="-0.55948">
        <ele>232.324379</ele>
        <time>2024-11-10T03:09:14.018Z</time>
      </trkpt>
      <trkpt lat="48.62332" lon="-0.55963">
        <ele>232.22369</ele>
        <time>2024-11-10T03:09:23.843Z</time>
      </trkpt>
      <trkpt lat="48.62332" lon="-0.5604">
        <ele>231.686894</ele>
        <time>2024-11-10T03:10:16.341Z</time>
      </trkpt>
      <trkpt lat="48.62319" lon="-0.56167">
        <ele>230.641883</ele>
        <time>2024-11-10T03:11:43.663Z</time>
      </trkpt>
      <trkpt lat="48.62303" lon="-0.56253">
        <ele>229.72917</ele>
        <time>2024-11-10T03:12:46.645Z</time>
      </trkpt>
      <trkpt lat="48.62303" lon="-0.56253">
        <ele>229.72917</ele>
        <time>2024-11-10T03:12:46.736Z</time>
      </trkpt>
      <trkpt lat="48.62303" lon="-0.56253">
        <ele>229.72917</ele>
        <time>2024-11-10T03:12:46.736Z</time>
      </trkpt>
      <trkpt lat="48.62359" lon="-0.56263">
        <ele>228.874456</ele>
        <time>2024-11-10T03:13:42.529Z</time>
      </trkpt>
      <trkpt lat="48.62414" lon="-0.56272">
        <ele>228.872734</ele>
        <time>2024-11-10T03:14:38.411Z</time>
      </trkpt>
      <trkpt lat="48.62474" lon="-0.56299">
        <ele>230.221347</ele>
        <time>2024-11-10T03:15:41.409Z</time>
      </trkpt>
      <trkpt lat="48.62535" lon="-0.56327">
        <ele>231.570364</ele>
        <time>2024-11-10T03:16:44.462Z</time>
      </trkpt>
      <trkpt lat="48.62575" lon="-0.56377">
        <ele>232.14153</ele>
        <time>2024-11-10T03:17:36.698Z</time>
      </trkpt>
      <trkpt lat="48.62594" lon="-0.56307">
        <ele>231.93809</ele>
        <time>2024-11-10T03:18:26.948Z</time>
      </trkpt>
      <trkpt lat="48.62614" lon="-0.56237">
        <ele>231.734651</ele>
        <time>2024-11-10T03:19:17.202Z</time>
      </trkpt>
      <trkpt lat="48.62624" lon="-0.56116">
        <ele>230.542224</ele>
        <time>2024-11-10T03:20:42.920Z</time>
      </trkpt>
      <trkpt lat="48.62708" lon="-0.56149">
        <ele>226.853561</ele>
        <time>2024-11-10T03:22:18.927Z</time>
      </trkpt>
      <trkpt lat="48.62709" lon="-0.56149">
        <ele>226.827683</ele>
        <time>2024-11-10T03:22:19.581Z</time>
      </trkpt>
      <trkpt lat="48.62715" lon="-0.56148">
        <ele>226.589055</ele>
        <time>2024-11-10T03:22:25.847Z</time>
      </trkpt>
      <trkpt lat="48.62721" lon="-0.56134">
        <ele>226.098931</ele>
        <time>2024-11-10T03:22:38.689Z</time>
      </trkpt>
      <trkpt lat="48.62731" lon="-0.56096">
        <ele>224.987621</ele>
        <time>2024-11-10T03:23:07.614Z</time>
      </trkpt>
      <trkpt lat="48.62739" lon="-0.5608">
        <ele>224.425763</ele>
        <time>2024-11-10T03:23:22.186Z</time>
      </trkpt>
      <trkpt lat="48.62752" lon="-0.56072">
        <ele>223.845585</ele>
        <time>2024-11-10T03:23:37.985Z</time>
      </trkpt>
      <trkpt lat="48.62786" lon="-0.56051">
        <ele>222.757782</ele>
        <time>2024-11-10T03:24:16.943Z</time>
      </trkpt>
      <trkpt lat="48.62804" lon="-0.56032">
        <ele>222.084106</ele>
        <time>2024-11-10T03:24:40.969Z</time>
      </trkpt>
      <trkpt lat="48.6283" lon="-0.56013">
        <ele>221.200729</ele>
        <time>2024-11-10T03:25:11.966Z</time>
      </trkpt>
      <trkpt lat="48.62857" lon="-0.55977">
        <ele>220.106186</ele>
        <time>2024-11-10T03:25:50.046Z</time>
      </trkpt>
      <trkpt lat="48.62874" lon="-0.55967">
        <ele>219.579871</ele>
        <time>2024-11-10T03:26:08.308Z</time>
      </trkpt>
      <trkpt lat="48.62896" lon="-0.55954">
        <ele>218.859029</ele>
        <time>2024-11-10T03:26:33.131Z</time>
      </trkpt>
      <trkpt lat="48.62931" lon="-0.55897">
        <ele>217.87143</ele>
        <time>2024-11-10T03:27:27.153Z</time>
      </trkpt>
      <trkpt lat="48.62941" lon="-0.55898">
        <ele>217.715911</ele>
        <time>2024-11-10T03:27:37.525Z</time>
      </trkpt>
      <trkpt lat="48.63002" lon="-0.55903">
        <ele>216.770278</ele>
        <time>2024-11-10T03:28:40.714Z</time>
      </trkpt>
      <trkpt lat="48.63027" lon="-0.55907">
        <ele>216.38249</ele>
        <time>2024-11-10T03:29:06.541Z</time>
      </trkpt>
      <trkpt lat="48.63128" lon="-0.55925">
        <ele>215.555968</ele>
        <time>2024-11-10T03:30:49.904Z</time>
      </trkpt>
      <trkpt lat="48.63128" lon="-0.55925">
        <ele>215.555968</ele>
        <time>2024-11-10T03:30:49.924Z</time>
      </trkpt>
      <trkpt lat="48.63098" lon="-0.56049">
        <ele>215.350571</ele>
        <time>2024-11-10T03:32:17.577Z</time>
      </trkpt>
      <trkpt lat="48.63067" lon="-0.56174">
        <ele>215.995564</ele>
        <time>2024-11-10T03:33:45.204Z</time>
      </trkpt>
      <trkpt lat="48.63037" lon="-0.56298">
        <ele>217.215008</ele>
        <time>2024-11-10T03:35:12.804Z</time>
      </trkpt>
      <trkpt lat="48.6302" lon="-0.56332">
        <ele>217.613276</ele>
        <time>2024-11-10T03:35:43.855Z</time>
      </trkpt>
      <trkpt lat="48.6289" lon="-0.5659">
        <ele>221.558584</ele>
        <time>2024-11-10T03:39:34.919Z</time>
      </trkpt>
      <trkpt lat="48.62869" lon="-0.56624">
        <ele>221.595523</ele>
        <time>2024-11-10T03:40:06.419Z</time>
      </trkpt>
      <trkpt lat="48.62857" lon="-0.5664">
        <ele>221.614184</ele>
        <time>2024-11-10T03:40:22.157Z</time>
      </trkpt>
      <trkpt lat="48.62857" lon="-0.5664">
        <ele>221.614184</ele>
        <time>2024-11-10T03:40:22.198Z</time>
      </trkpt>
      <trkpt lat="48.62789" lon="-0.56719">
        <ele>221.71638</ele>
        <time>2024-11-10T03:41:48.080Z</time>
      </trkpt>
      <trkpt lat="48.62721" lon="-0.56799">
        <ele>222.16926</ele>
        <time>2024-11-10T03:43:13.925Z</time>
      </trkpt>
      <trkpt lat="48.62654" lon="-0.56878">
        <ele>222.763965</ele>
        <time>2024-11-10T03:44:39.770Z</time>
      </trkpt>
      <trkpt lat="48.62654" lon="-0.56878">
        <ele>222.763965</ele>
        <time>2024-11-10T03:44:39.790Z</time>
      </trkpt>
      <trkpt lat="48.62668" lon="-0.56946">
        <ele>223.148138</ele>
        <time>2024-11-10T03:45:27.001Z</time>
      </trkpt>
      <trkpt lat="48.62683" lon="-0.57014">
        <ele>223.66634</ele>
        <time>2024-11-10T03:46:14.280Z</time>
      </trkpt>
      <trkpt lat="48.62731" lon="-0.57075">
        <ele>224.353262</ele>
        <time>2024-11-10T03:47:16.946Z</time>
      </trkpt>
      <trkpt lat="48.62779" lon="-0.57135">
        <ele>224.621223</ele>
        <time>2024-11-10T03:48:19.553Z</time>
      </trkpt>
      <trkpt lat="48.62827" lon="-0.57196">
        <ele>221.385052</ele>
        <time>2024-11-10T03:49:22.251Z</time>
      </trkpt>
      <trkpt lat="48.62827" lon="-0.57196">
        <ele>221.385052</ele>
        <time>2024-11-10T03:49:22.354Z</time>
      </trkpt>
      <trkpt lat="48.62827" lon="-0.57196">
        <ele>221.385052</ele>
        <time>2024-11-10T03:49:22.354Z</time>
      </trkpt>
      <trkpt lat="48.6287" lon="-0.57289">
        <ele>217.523917</ele>
        <time>2024-11-10T03:50:37.225Z</time>
      </trkpt>
      <trkpt lat="48.62923" lon="-0.57332">
        <ele>214.225743</ele>
        <time>2024-11-10T03:51:46.172Z</time>
      </trkpt>
      <trkpt lat="48.62923" lon="-0.57335">
        <ele>214.099079</ele>
        <time>2024-11-10T03:51:48.659Z</time>
      </trkpt>
      <trkpt lat="48.62906" lon="-0.57404">
        <ele>211.256936</ele>
        <time>2024-11-10T03:52:43.522Z</time>
      </trkpt>
      <trkpt lat="48.62904" lon="-0.57411">
        <ele>210.963221</ele>
        <time>2024-11-10T03:52:49.164Z</time>
      </trkpt>
      <trkpt lat="48.62888" lon="-0.57464">
        <ele>208.688526</ele>
        <time>2024-11-10T03:53:32.732Z</time>
      </trkpt>
      <trkpt lat="48.62861" lon="-0.5752">
        <ele>206.021192</ele>
        <time>2024-11-10T03:54:23.490Z</time>
      </trkpt>
      <trkpt lat="48.6283" lon="-0.57647">
        <ele>202.858262</ele>
        <time>2024-11-10T03:56:00.915Z</time>
      </trkpt>
      <trkpt lat="48.62826" lon="-0.57663">
        <ele>202.505622</ele>
        <time>2024-11-10T03:56:13.082Z</time>
      </trkpt>
      <trkpt lat="48.62826" lon="-0.57675">
        <ele>202.274392</ele>
        <time>2024-11-10T03:56:20.995Z</time>
      </trkpt>
      <trkpt lat="48.62829" lon="-0.5768">
        <ele>202.114418</ele>
        <time>2024-11-10T03:56:26.395Z</time>
      </trkpt>
      <trkpt lat="48.62831" lon="-0.57682">
        <ele>202.057527</ele>
        <time>2024-11-10T03:56:28.346Z</time>
      </trkpt>
      <trkpt lat="48.62854" lon="-0.57697">
        <ele>201.288173</ele>
        <time>2024-11-10T03:56:54.360Z</time>
      </trkpt>
      <trkpt lat="48.62855" lon="-0.57699">
        <ele>201.237728</ele>
        <time>2024-11-10T03:56:56.064Z</time>
      </trkpt>
      <trkpt lat="48.62858" lon="-0.57703">
        <ele>201.111381</ele>
        <time>2024-11-10T03:57:00.313Z</time>
      </trkpt>
      <trkpt lat="48.62858" lon="-0.57779">
        <ele>199.562388</ele>
        <time>2024-11-10T03:57:52.469Z</time>
      </trkpt>
      <trkpt lat="48.62858" lon="-0.5784">
        <ele>198.251181</ele>
        <time>2024-11-10T03:58:34.446Z</time>
      </trkpt>
      <trkpt lat="48.62853" lon="-0.57863">
        <ele>197.74177</ele>
        <time>2024-11-10T03:58:50.920Z</time>
      </trkpt>
      <trkpt lat="48.62847" lon="-0.57867">
        <ele>197.527239</ele>
        <time>2024-11-10T03:58:57.893Z</time>
      </trkpt>
      <trkpt lat="48.62827" lon="-0.57883">
        <ele>196.798601</ele>
        <time>2024-11-10T03:59:21.752Z</time>
      </trkpt>
      <trkpt lat="48.62806" lon="-0.57891">
        <ele>196.095472</ele>
        <time>2024-11-10T03:59:44.920Z</time>
      </trkpt>
      <trkpt lat="48.62798" lon="-0.57897">
        <ele>195.822875</ele>
        <time>2024-11-10T03:59:53.986Z</time>
      </trkpt>
      <trkpt lat="48.62763" lon="-0.57964">
        <ele>193.975989</ele>
        <time>2024-11-10T04:00:56.093Z</time>
      </trkpt>
      <trkpt lat="48.62739" lon="-0.57997">
        <ele>192.938782</ele>
        <time>2024-11-10T04:01:31.658Z</time>
      </trkpt>
      <trkpt lat="48.62715" lon="-0.58018">
        <ele>192.058719</ele>
        <time>2024-11-10T04:02:01.874Z</time>
      </trkpt>
      <trkpt lat="48.62709" lon="-0.58022">
        <ele>191.840818</ele>
        <time>2024-11-10T04:02:09.312Z</time>
      </trkpt>
      <trkpt lat="48.62695" lon="-0.5805">
        <ele>191.096267</ele>
        <time>2024-11-10T04:02:34.676Z</time>
      </trkpt>
      <trkpt lat="48.62655" lon="-0.58131">
        <ele>188.994189</ele>
        <time>2024-11-10T04:03:45.023Z</time>
      </trkpt>
      <trkpt lat="48.62629" lon="-0.58174">
        <ele>188.15251</ele>
        <time>2024-11-10T04:04:24.943Z</time>
      </trkpt>
      <trkpt lat="48.62669" lon="-0.58238">
        <ele>188.679314</ele>
        <time>2024-11-10T04:05:23.283Z</time>
      </trkpt>
      <trkpt lat="48.62684" lon="-0.58227">
        <ele>188.831561</ele>
        <time>2024-11-10T04:05:40.680Z</time>
      </trkpt>
      <trkpt lat="48.628" lon="-0.58167">
        <ele>190.285791</ele>
        <time>2024-11-10T04:07:53.046Z</time>
      </trkpt>
      <trkpt lat="48.62932" lon="-0.58125">
        <ele>193.236412</ele>
        <time>2024-11-10T04:10:18.828Z</time>
      </trkpt>
      <trkpt lat="48.62956" lon="-0.58124">
        <ele>193.843679</ele>
        <time>2024-11-10T04:10:43.713Z</time>
      </trkpt>
      <trkpt lat="48.6303" lon="-0.58149">
        <ele>196.714251</ele>
        <time>2024-11-10T04:12:07.184Z</time>
      </trkpt>
      <trkpt lat="48.6303" lon="-0.58222">
        <ele>198.532676</ele>
        <time>2024-11-10T04:13:02.365Z</time>
      </trkpt>
      <trkpt lat="48.63034" lon="-0.58236">
        <ele>198.912869</ele>
        <time>2024-11-10T04:13:14.273Z</time>
      </trkpt>
      <trkpt lat="48.63134" lon="-0.58462">
        <ele>206.736966</ele>
        <time>2024-11-10T04:16:48.589Z</time>
      </trkpt>
      <trkpt lat="48.63173" lon="-0.58528">
        <ele>208.144363</ele>
        <time>2024-11-10T04:17:51.833Z</time>
      </trkpt>
      <trkpt lat="48.63226" lon="-0.58499">
        <ele>207.020591</ele>
        <time>2024-11-10T04:18:49.288Z</time>
      </trkpt>
      <trkpt lat="48.63272" lon="-0.58464">
        <ele>206.011859</ele>
        <time>2024-11-10T04:19:43.321Z</time>
      </trkpt>
      <trkpt lat="48.63301" lon="-0.58458">
        <ele>205.438657</ele>
        <time>2024-11-10T04:20:14.850Z</time>
      </trkpt>
      <trkpt lat="48.6331" lon="-0.58408">
        <ele>204.191668</ele>
        <time>2024-11-10T04:20:53.136Z</time>
      </trkpt>
      <trkpt lat="48.6336" lon="-0.58385">
        <ele>200.375577</ele>
        <time>2024-11-10T04:21:52.847Z</time>
      </trkpt>
      <trkpt lat="48.6349" lon="-0.5838">
        <ele>191.183102</ele>
        <time>2024-11-10T04:24:24.717Z</time>
      </trkpt>
      <trkpt lat="48.63609" lon="-0.58307">
        <ele>184.610639</ele>
        <time>2024-11-10T04:26:47.606Z</time>
      </trkpt>
      <trkpt lat="48.636" lon="-0.58239">
        <ele>182.544988</ele>
        <time>2024-11-10T04:27:35.789Z</time>
      </trkpt>
      <trkpt lat="48.63593" lon="-0.58212">
        <ele>182.293653</ele>
        <time>2024-11-10T04:27:55.676Z</time>
      </trkpt>
      <trkpt lat="48.63588" lon="-0.58152">
        <ele>181.769606</ele>
        <time>2024-11-10T04:28:36.639Z</time>
      </trkpt>
      <trkpt lat="48.63564" lon="-0.58029">
        <ele>180.667147</ele>
        <time>2024-11-10T04:30:02.559Z</time>
      </trkpt>
      <trkpt lat="48.63584" lon="-0.58025">
        <ele>180.397909</ele>
        <time>2024-11-10T04:30:23.698Z</time>
      </trkpt>
      <trkpt lat="48.63608" lon="-0.58032">
        <ele>180.132817</ele>
        <time>2024-11-10T04:30:48.215Z</time>
      </trkpt>
      <trkpt lat="48.63624" lon="-0.58042">
        <ele>179.950009</ele>
        <time>2024-11-10T04:31:06.641Z</time>
      </trkpt>
      <trkpt lat="48.63757" lon="-0.58216">
        <ele>178.879937</ele>
        <time>2024-11-10T04:34:06.173Z</time>
      </trkpt>
      <trkpt lat="48.63756" lon="-0.582">
        <ele>179.032212</ele>
        <time>2024-11-10T04:34:16.805Z</time>
      </trkpt>
      <trkpt lat="48.63744" lon="-0.58147">
        <ele>179.568492</ele>
        <time>2024-11-10T04:34:54.335Z</time>
      </trkpt>
      <trkpt lat="48.63734" lon="-0.58042">
        <ele>180.584355</ele>
        <time>2024-11-10T04:36:08.322Z</time>
      </trkpt>
      <trkpt lat="48.63709" lon="-0.57961">
        <ele>183.243873</ele>
        <time>2024-11-10T04:37:16.081Z</time>
      </trkpt>
      <trkpt lat="48.63755" lon="-0.57975">
        <ele>187.143548</ele>
        <time>2024-11-10T04:38:13.884Z</time>
      </trkpt>
      <trkpt lat="48.6383" lon="-0.57968">
        <ele>193.328545</ele>
        <time>2024-11-10T04:39:53.912Z</time>
      </trkpt>
      <trkpt lat="48.63866" lon="-0.57954">
        <ele>196.383841</ele>
        <time>2024-11-10T04:40:46.715Z</time>
      </trkpt>
      <trkpt lat="48.63936" lon="-0.57899">
        <ele>202.90655</ele>
        <time>2024-11-10T04:42:35.031Z</time>
      </trkpt>
      <trkpt lat="48.64012" lon="-0.57821">
        <ele>210.459577</ele>
        <time>2024-11-10T04:44:29.338Z</time>
      </trkpt>
      <trkpt lat="48.64071" lon="-0.57737">
        <ele>209.635112</ele>
        <time>2024-11-10T04:45:53.985Z</time>
      </trkpt>
      <trkpt lat="48.64099" lon="-0.5767">
        <ele>208.915057</ele>
        <time>2024-11-10T04:46:50.559Z</time>
      </trkpt>
      <trkpt lat="48.64103" lon="-0.57659">
        <ele>208.802422</ele>
        <time>2024-11-10T04:46:59.672Z</time>
      </trkpt>
      <trkpt lat="48.6414" lon="-0.57602">
        <ele>207.784747</ele>
        <time>2024-11-10T04:47:58.259Z</time>
      </trkpt>
      <trkpt lat="48.64184" lon="-0.57551">
        <ele>205.553125</ele>
        <time>2024-11-10T04:49:01.091Z</time>
      </trkpt>
      <trkpt lat="48.64196" lon="-0.57532">
        <ele>204.853024</ele>
        <time>2024-11-10T04:49:20.589Z</time>
      </trkpt>
      <trkpt lat="48.64204" lon="-0.57511">
        <ele>204.225668</ele>
        <time>2024-11-10T04:49:37.811Z</time>
      </trkpt>
      <trkpt lat="48.64205" lon="-0.57469">
        <ele>203.093564</ele>
        <time>2024-11-10T04:50:08.114Z</time>
      </trkpt>
      <trkpt lat="48.64195" lon="-0.5739">
        <ele>201.009283</ele>
        <time>2024-11-10T04:51:03.454Z</time>
      </trkpt>
      <trkpt lat="48.64196" lon="-0.57356">
        <ele>201.135763</ele>
        <time>2024-11-10T04:51:25.921Z</time>
      </trkpt>
      <trkpt lat="48.64222" lon="-0.57294">
        <ele>201.406138</ele>
        <time>2024-11-10T04:52:15.691Z</time>
      </trkpt>
      <trkpt lat="48.64244" lon="-0.57181">
        <ele>201.845037</ele>
        <time>2024-11-10T04:53:38.011Z</time>
      </trkpt>
      <trkpt lat="48.6424" lon="-0.57145">
        <ele>201.982589</ele>
        <time>2024-11-10T04:54:03.482Z</time>
      </trkpt>
      <trkpt lat="48.64226" lon="-0.57009">
        <ele>202.029928</ele>
        <time>2024-11-10T04:55:34.954Z</time>
      </trkpt>
      <trkpt lat="48.64278" lon="-0.56876">
        <ele>202.263055</ele>
        <time>2024-11-10T04:57:18.993Z</time>
      </trkpt>
      <trkpt lat="48.64096" lon="-0.56932">
        <ele>207.709489</ele>
        <time>2024-11-10T05:00:44.226Z</time>
      </trkpt>
      <trkpt lat="48.63957" lon="-0.56979">
        <ele>214.792498</ele>
        <time>2024-11-10T05:03:38.033Z</time>
      </trkpt>
      <trkpt lat="48.63891" lon="-0.56994">
        <ele>215.166451</ele>
        <time>2024-11-10T05:04:51.701Z</time>
      </trkpt>
      <trkpt lat="48.63826" lon="-0.57018">
        <ele>213.880875</ele>
        <time>2024-11-10T05:06:00.648Z</time>
      </trkpt>
      <trkpt lat="48.63814" lon="-0.57014">
        <ele>213.641486</ele>
        <time>2024-11-10T05:06:14.064Z</time>
      </trkpt>
      <trkpt lat="48.638" lon="-0.56966">
        <ele>212.976034</ele>
        <time>2024-11-10T05:06:52.331Z</time>
      </trkpt>
      <trkpt lat="48.6379" lon="-0.56955">
        <ele>212.731004</ele>
        <time>2024-11-10T05:07:06.670Z</time>
      </trkpt>
      <trkpt lat="48.63707" lon="-0.56972">
        <ele>207.369503</ele>
        <time>2024-11-10T05:08:43.401Z</time>
      </trkpt>
      <trkpt lat="48.63671" lon="-0.56965">
        <ele>204.826596</ele>
        <time>2024-11-10T05:09:25.192Z</time>
      </trkpt>
      <trkpt lat="48.6362" lon="-0.56964">
        <ele>201.233116</ele>
        <time>2024-11-10T05:10:23.779Z</time>
      </trkpt>
      <trkpt lat="48.63569" lon="-0.56973">
        <ele>198.579599</ele>
        <time>2024-11-10T05:11:22.180Z</time>
      </trkpt>
      <trkpt lat="48.63471" lon="-0.5702">
        <ele>194.502841</ele>
        <time>2024-11-10T05:13:13.430Z</time>
      </trkpt>
      <trkpt lat="48.63463" lon="-0.56989">
        <ele>193.638885</ele>
        <time>2024-11-10T05:13:36.309Z</time>
      </trkpt>
      <trkpt lat="48.63448" lon="-0.56961">
        <ele>192.719037</ele>
        <time>2024-11-10T05:14:00.908Z</time>
      </trkpt>
      <trkpt lat="48.63397" lon="-0.56894">
        <ele>193.003034</ele>
        <time>2024-11-10T05:15:10.238Z</time>
      </trkpt>
      <trkpt lat="48.63386" lon="-0.56862">
        <ele>193.101297</ele>
        <time>2024-11-10T05:15:33.986Z</time>
      </trkpt>
      <trkpt lat="48.63375" lon="-0.56799">
        <ele>193.279272</ele>
        <time>2024-11-10T05:16:17.958Z</time>
      </trkpt>
      <trkpt lat="48.63377" lon="-0.56726">
        <ele>193.598694</ele>
        <time>2024-11-10T05:17:10.207Z</time>
      </trkpt>
      <trkpt lat="48.63377" lon="-0.56709">
        <ele>194.019307</ele>
        <time>2024-11-10T05:17:22.451Z</time>
      </trkpt>
      <trkpt lat="48.63371" lon="-0.56623">
        <ele>196.197085</ele>
        <time>2024-11-10T05:18:27.642Z</time>
      </trkpt>
      <trkpt lat="48.63371" lon="-0.5658">
        <ele>197.250447</ele>
        <time>2024-11-10T05:18:59.771Z</time>
      </trkpt>
      <trkpt lat="48.63377" lon="-0.56523">
        <ele>198.701995</ele>
        <time>2024-11-10T05:19:44.265Z</time>
      </trkpt>
      <trkpt lat="48.63382" lon="-0.56497">
        <ele>199.388846</ele>
        <time>2024-11-10T05:20:05.280Z</time>
      </trkpt>
      <trkpt lat="48.63401" lon="-0.564">
        <ele>201.306131</ele>
        <time>2024-11-10T05:21:21.890Z</time>
      </trkpt>
      <trkpt lat="48.63404" lon="-0.56355">
        <ele>202.004728</ele>
        <time>2024-11-10T05:21:54.648Z</time>
      </trkpt>
      <trkpt lat="48.63398" lon="-0.56261">
        <ele>203.47099</ele>
        <time>2024-11-10T05:23:00.878Z</time>
      </trkpt>
      <trkpt lat="48.63398" lon="-0.5626">
        <ele>203.48982</ele>
        <time>2024-11-10T05:23:01.713Z</time>
      </trkpt>
      <trkpt lat="48.634" lon="-0.56225">
        <ele>204.040842</ele>
        <time>2024-11-10T05:23:25.934Z</time>
      </trkpt>
      <trkpt lat="48.63446" lon="-0.56045">
        <ele>206.231967</ele>
        <time>2024-11-10T05:25:37.347Z</time>
      </trkpt>
      <trkpt lat="48.63447" lon="-0.56028">
        <ele>206.406447</ele>
        <time>2024-11-10T05:25:48.867Z</time>
      </trkpt>
      <trkpt lat="48.63471" lon="-0.55992">
        <ele>206.947107</ele>
        <time>2024-11-10T05:26:24.866Z</time>
      </trkpt>
      <trkpt lat="48.6349" lon="-0.55956">
        <ele>207.512608</ele>
        <time>2024-11-10T05:26:58.390Z</time>
      </trkpt>
      <trkpt lat="48.63497" lon="-0.55953">
        <ele>207.810551</ele>
        <time>2024-11-10T05:27:05.902Z</time>
      </trkpt>
      <trkpt lat="48.63526" lon="-0.55957">
        <ele>209.134175</ele>
        <time>2024-11-10T05:27:39.480Z</time>
      </trkpt>
      <trkpt lat="48.63577" lon="-0.55981">
        <ele>211.49031</ele>
        <time>2024-11-10T05:28:40.766Z</time>
      </trkpt>
      <trkpt lat="48.63608" lon="-0.55982">
        <ele>212.884651</ele>
        <time>2024-11-10T05:29:17.441Z</time>
      </trkpt>
      <trkpt lat="48.63645" lon="-0.55956">
        <ele>214.687922</ele>
        <time>2024-11-10T05:30:05.522Z</time>
      </trkpt>
      <trkpt lat="48.63775" lon="-0.55831">
        <ele>221.495891</ele>
        <time>2024-11-10T05:33:08.141Z</time>
      </trkpt>
      <trkpt lat="48.63864" lon="-0.55956">
        <ele>223.604171</ele>
        <time>2024-11-10T05:35:18.874Z</time>
      </trkpt>
      <trkpt lat="48.63947" lon="-0.56109">
        <ele>222.745148</ele>
        <time>2024-11-10T05:37:32.640Z</time>
      </trkpt>
      <trkpt lat="48.64033" lon="-0.56189">
        <ele>218.815148</ele>
        <time>2024-11-10T05:39:21.014Z</time>
      </trkpt>
      <trkpt lat="48.64124" lon="-0.5633">
        <ele>212.161267</ele>
        <time>2024-11-10T05:41:47.705Z</time>
      </trkpt>
      <trkpt lat="48.64273" lon="-0.56367">
        <ele>205.668572</ele>
        <time>2024-11-10T05:44:36.566Z</time>
      </trkpt>
      <trkpt lat="48.64225" lon="-0.55879">
        <ele>204.120407</ele>
        <time>2024-11-10T05:50:08.758Z</time>
      </trkpt>
      <trkpt lat="48.64216" lon="-0.55738">
        <ele>202.745625</ele>
        <time>2024-11-10T05:51:45.044Z</time>
      </trkpt>
      <trkpt lat="48.64212" lon="-0.55609">
        <ele>201.395498</ele>
        <time>2024-11-10T05:53:14.737Z</time>
      </trkpt>
      <trkpt lat="48.6421" lon="-0.55484">
        <ele>199.748925</ele>
        <time>2024-11-10T05:54:41.125Z</time>
      </trkpt>
      <trkpt lat="48.64212" lon="-0.55316">
        <ele>198.687858</ele>
        <time>2024-11-10T05:56:36.694Z</time>
      </trkpt>
      <trkpt lat="48.64209" lon="-0.55289">
        <ele>198.981201</ele>
        <time>2024-11-10T05:56:55.434Z</time>
      </trkpt>
      <trkpt lat="48.6421" lon="-0.55264">
        <ele>199.242237</ele>
        <time>2024-11-10T05:57:11.890Z</time>
      </trkpt>
      <trkpt lat="48.64203" lon="-0.55232">
        <ele>199.603375</ele>
        <time>2024-11-10T05:57:35.208Z</time>
      </trkpt>
      <trkpt lat="48.64189" lon="-0.55212">
        <ele>199.905232</ele>
        <time>2024-11-10T05:57:55.263Z</time>
      </trkpt>
      <trkpt lat="48.64187" lon="-0.55203">
        <ele>200.011903</ele>
        <time>2024-11-10T05:58:02.536Z</time>
      </trkpt>
      <trkpt lat="48.64192" lon="-0.55162">
        <ele>200.447722</ele>
        <time>2024-11-10T05:58:33.074Z</time>
      </trkpt>
      <trkpt lat="48.64191" lon="-0.5515">
        <ele>200.567443</ele>
        <time>2024-11-10T05:58:41.750Z</time>
      </trkpt>
      <trkpt lat="48.64183" lon="-0.5513">
        <ele>200.821315</ele>
        <time>2024-11-10T05:59:00.554Z</time>
      </trkpt>
      <trkpt lat="48.64181" lon="-0.55119">
        <ele>200.931206</ele>
        <time>2024-11-10T05:59:08.787Z</time>
      </trkpt>
      <trkpt lat="48.64184" lon="-0.55109">
        <ele>201.048949</ele>
        <time>2024-11-10T05:59:17.676Z</time>
      </trkpt>
      <trkpt lat="48.64209" lon="-0.55052">
        <ele>202.673241</ele>
        <time>2024-11-10T06:00:11.805Z</time>
      </trkpt>
      <trkpt lat="48.64215" lon="-0.55018">
        <ele>203.52496</ele>
        <time>2024-11-10T06:00:39.975Z</time>
      </trkpt>
      <trkpt lat="48.64215" lon="-0.54972">
        <ele>204.609347</ele>
        <time>2024-11-10T06:01:15.342Z</time>
      </trkpt>
      <trkpt lat="48.64232" lon="-0.54926">
        <ele>205.864765</ele>
        <time>2024-11-10T06:01:54.621Z</time>
      </trkpt>
      <trkpt lat="48.6424" lon="-0.54892">
        <ele>206.74005</ele>
        <time>2024-11-10T06:02:20.695Z</time>
      </trkpt>
      <trkpt lat="48.64234" lon="-0.54799">
        <ele>207.362118</ele>
        <time>2024-11-10T06:03:22.659Z</time>
      </trkpt>
      <trkpt lat="48.64235" lon="-0.54693">
        <ele>207.053043</ele>
        <time>2024-11-10T06:04:34.711Z</time>
      </trkpt>
      <trkpt lat="48.64235" lon="-0.54444">
        <ele>207.246006</ele>
        <time>2024-11-10T06:07:20.729Z</time>
      </trkpt>
      <trkpt lat="48.64249" lon="-0.54391">
        <ele>207.447153</ele>
        <time>2024-11-10T06:07:59.666Z</time>
      </trkpt>
      <trkpt lat="48.64248" lon="-0.54382">
        <ele>207.479078</ele>
        <time>2024-11-10T06:08:05.844Z</time>
      </trkpt>
      <trkpt lat="48.64239" lon="-0.54374">
        <ele>207.532141</ele>
        <time>2024-11-10T06:08:15.959Z</time>
      </trkpt>
      <trkpt lat="48.64231" lon="-0.54366">
        <ele>207.582197</ele>
        <time>2024-11-10T06:08:25.696Z</time>
      </trkpt>
      <trkpt lat="48.64227" lon="-0.54355">
        <ele>207.628661</ele>
        <time>2024-11-10T06:08:34.589Z</time>
      </trkpt>
      <trkpt lat="48.64226" lon="-0.54309">
        <ele>208.479581</ele>
        <time>2024-11-10T06:09:06.516Z</time>
      </trkpt>
      <trkpt lat="48.64229" lon="-0.54275">
        <ele>209.550992</ele>
        <time>2024-11-10T06:09:31.727Z</time>
      </trkpt>
      <trkpt lat="48.64226" lon="-0.54197">
        <ele>211.998387</ele>
        <time>2024-11-10T06:10:31.589Z</time>
      </trkpt>
      <trkpt lat="48.64223" lon="-0.54176">
        <ele>212.668344</ele>
        <time>2024-11-10T06:10:47.722Z</time>
      </trkpt>
      <trkpt lat="48.64216" lon="-0.54157">
        <ele>213.350888</ele>
        <time>2024-11-10T06:11:04.439Z</time>
      </trkpt>
      <trkpt lat="48.64184" lon="-0.54117">
        <ele>215.295682</ele>
        <time>2024-11-10T06:11:54.055Z</time>
      </trkpt>
      <trkpt lat="48.6417" lon="-0.54077">
        <ele>216.892058</ele>
        <time>2024-11-10T06:12:32.666Z</time>
      </trkpt>
      <trkpt lat="48.64145" lon="-0.54005">
        <ele>220.181898</ele>
        <time>2024-11-10T06:13:42.734Z</time>
      </trkpt>
      <trkpt lat="48.64121" lon="-0.53922">
        <ele>223.878726</ele>
        <time>2024-11-10T06:14:57.724Z</time>
      </trkpt>
      <trkpt lat="48.64113" lon="-0.53878">
        <ele>225.734985</ele>
        <time>2024-11-10T06:15:33.513Z</time>
      </trkpt>
      <trkpt lat="48.64119" lon="-0.53836">
        <ele>227.271767</ele>
        <time>2024-11-10T06:16:05.533Z</time>
      </trkpt>
      <trkpt lat="48.64201" lon="-0.53482">
        <ele>224.707176</ele>
        <time>2024-11-10T06:20:19.198Z</time>
      </trkpt>
      <trkpt lat="48.64249" lon="-0.53272">
        <ele>219.405639</ele>
        <time>2024-11-10T06:22:58.843Z</time>
      </trkpt>
      <trkpt lat="48.64267" lon="-0.53197">
        <ele>216.561306</ele>
        <time>2024-11-10T06:23:57.047Z</time>
      </trkpt>
      <trkpt lat="48.64303" lon="-0.53278">
        <ele>213.058612</ele>
        <time>2024-11-10T06:25:09.424Z</time>
      </trkpt>
      <trkpt lat="48.64314" lon="-0.53308">
        <ele>211.822923</ele>
        <time>2024-11-10T06:25:35.006Z</time>
      </trkpt>
      <trkpt lat="48.64325" lon="-0.53328">
        <ele>210.931614</ele>
        <time>2024-11-10T06:25:54.335Z</time>
      </trkpt>
      <trkpt lat="48.6436" lon="-0.53347">
        <ele>209.044082</ele>
        <time>2024-11-10T06:26:35.358Z</time>
      </trkpt>
      <trkpt lat="48.64379" lon="-0.53346">
        <ele>208.043307</ele>
        <time>2024-11-10T06:26:57.027Z</time>
      </trkpt>
      <trkpt lat="48.64422" lon="-0.53326">
        <ele>205.681199</ele>
        <time>2024-11-10T06:27:47.563Z</time>
      </trkpt>
      <trkpt lat="48.64464" lon="-0.53295">
        <ele>203.261303</ele>
        <time>2024-11-10T06:28:38.482Z</time>
      </trkpt>
      <trkpt lat="48.64508" lon="-0.53258">
        <ele>201.404092</ele>
        <time>2024-11-10T06:29:32.788Z</time>
      </trkpt>
      <trkpt lat="48.64545" lon="-0.53238">
        <ele>200.266644</ele>
        <time>2024-11-10T06:30:13.692Z</time>
      </trkpt>
      <trkpt lat="48.64588" lon="-0.53306">
        <ele>198.41774</ele>
        <time>2024-11-10T06:31:19.994Z</time>
      </trkpt>
      <trkpt lat="48.64656" lon="-0.53377">
        <ele>196.784007</ele>
        <time>2024-11-10T06:32:46.700Z</time>
      </trkpt>
      <trkpt lat="48.64691" lon="-0.53421">
        <ele>196.410716</ele>
        <time>2024-11-10T06:33:33.323Z</time>
      </trkpt>
      <trkpt lat="48.64705" lon="-0.53433">
        <ele>196.276813</ele>
        <time>2024-11-10T06:33:49.879Z</time>
      </trkpt>
      <trkpt lat="48.64704" lon="-0.53403">
        <ele>196.113191</ele>
        <time>2024-11-10T06:34:09.995Z</time>
      </trkpt>
      <trkpt lat="48.64707" lon="-0.53369">
        <ele>195.928998</ele>
        <time>2024-11-10T06:34:32.577Z</time>
      </trkpt>
      <trkpt lat="48.64739" lon="-0.5331">
        <ele>195.873045</ele>
        <time>2024-11-10T06:35:24.469Z</time>
      </trkpt>
      <trkpt lat="48.64764" lon="-0.53252">
        <ele>196.73288</ele>
        <time>2024-11-10T06:36:12.123Z</time>
      </trkpt>
      <trkpt lat="48.64777" lon="-0.53237">
        <ele>197.041626</ele>
        <time>2024-11-10T06:36:29.356Z</time>
      </trkpt>
      <trkpt lat="48.64807" lon="-0.53217">
        <ele>197.662892</ele>
        <time>2024-11-10T06:37:04.483Z</time>
      </trkpt>
      <trkpt lat="48.6482" lon="-0.53201">
        <ele>197.983408</ele>
        <time>2024-11-10T06:37:22.823Z</time>
      </trkpt>
      <trkpt lat="48.64831" lon="-0.53184">
        <ele>198.268123</ele>
        <time>2024-11-10T06:37:39.267Z</time>
      </trkpt>
      <trkpt lat="48.64874" lon="-0.53117">
        <ele>199.589356</ele>
        <time>2024-11-10T06:38:47.954Z</time>
      </trkpt>
      <trkpt lat="48.64902" lon="-0.53087">
        <ele>200.457195</ele>
        <time>2024-11-10T06:39:25.727Z</time>
      </trkpt>
      <trkpt lat="48.64909" lon="-0.53071">
        <ele>200.799706</ele>
        <time>2024-11-10T06:39:40.619Z</time>
      </trkpt>
      <trkpt lat="48.64913" lon="-0.53053">
        <ele>201.121409</ele>
        <time>2024-11-10T06:39:54.472Z</time>
      </trkpt>
      <trkpt lat="48.64917" lon="-0.53014">
        <ele>201.786867</ele>
        <time>2024-11-10T06:40:23.011Z</time>
      </trkpt>
      <trkpt lat="48.64915" lon="-0.52992">
        <ele>202.154277</ele>
        <time>2024-11-10T06:40:38.684Z</time>
      </trkpt>
      <trkpt lat="48.64908" lon="-0.52969">
        <ele>202.573173</ele>
        <time>2024-11-10T06:40:56.419Z</time>
      </trkpt>
      <trkpt lat="48.64887" lon="-0.52933">
        <ele>203.393306</ele>
        <time>2024-11-10T06:41:30.707Z</time>
      </trkpt>
      <trkpt lat="48.64835" lon="-0.52805">
        <ele>205.847814</ele>
        <time>2024-11-10T06:43:15.504Z</time>
      </trkpt>
      <trkpt lat="48.6482" lon="-0.52779">
        <ele>206.41681</ele>
        <time>2024-11-10T06:43:40.271Z</time>
      </trkpt>
      <trkpt lat="48.64773" lon="-0.52722">
        <ele>207.892354</ele>
        <time>2024-11-10T06:44:46.858Z</time>
      </trkpt>
      <trkpt lat="48.64764" lon="-0.527">
        <ele>208.550824</ele>
        <time>2024-11-10T06:45:06.109Z</time>
      </trkpt>
      <trkpt lat="48.64762" lon="-0.52658">
        <ele>209.898877</ele>
        <time>2024-11-10T06:45:38.358Z</time>
      </trkpt>
      <trkpt lat="48.64758" lon="-0.52639">
        <ele>210.528628</ele>
        <time>2024-11-10T06:45:53.569Z</time>
      </trkpt>
      <trkpt lat="48.64752" lon="-0.52623">
        <ele>211.138977</ele>
        <time>2024-11-10T06:46:08.434Z</time>
      </trkpt>
      <trkpt lat="48.64709" lon="-0.52557">
        <ele>214.115488</ele>
        <time>2024-11-10T06:47:21.426Z</time>
      </trkpt>
      <trkpt lat="48.64685" lon="-0.52536">
        <ele>215.463557</ele>
        <time>2024-11-10T06:47:54.466Z</time>
      </trkpt>
      <trkpt lat="48.64706" lon="-0.52487">
        <ele>217.183648</ele>
        <time>2024-11-10T06:48:40.183Z</time>
      </trkpt>
      <trkpt lat="48.64705" lon="-0.52476">
        <ele>217.415944</ele>
        <time>2024-11-10T06:48:48.270Z</time>
      </trkpt>
      <trkpt lat="48.64712" lon="-0.5246">
        <ele>217.835535</ele>
        <time>2024-11-10T06:49:02.735Z</time>
      </trkpt>
      <trkpt lat="48.64719" lon="-0.52413">
        <ele>218.879748</ele>
        <time>2024-11-10T06:49:37.940Z</time>
      </trkpt>
      <trkpt lat="48.6473" lon="-0.52395">
        <ele>219.419172</ele>
        <time>2024-11-10T06:49:55.850Z</time>
      </trkpt>
      <trkpt lat="48.64769" lon="-0.52396">
        <ele>220.728965</ele>
        <time>2024-11-10T06:50:39.134Z</time>
      </trkpt>
      <trkpt lat="48.64775" lon="-0.52386">
        <ele>221.010428</ele>
        <time>2024-11-10T06:50:48.332Z</time>
      </trkpt>
      <trkpt lat="48.64779" lon="-0.52339">
        <ele>222.054962</ele>
        <time>2024-11-10T06:51:22.753Z</time>
      </trkpt>
      <trkpt lat="48.64786" lon="-0.52295">
        <ele>223.098372</ele>
        <time>2024-11-10T06:51:55.425Z</time>
      </trkpt>
      <trkpt lat="48.64793" lon="-0.52247">
        <ele>224.390506</ele>
        <time>2024-11-10T06:52:31.431Z</time>
      </trkpt>
      <trkpt lat="48.64818" lon="-0.51855">
        <ele>235.185058</ele>
        <time>2024-11-10T06:57:31.867Z</time>
      </trkpt>
      <trkpt lat="48.64765" lon="-0.5185">
        <ele>237.446826</ele>
        <time>2024-11-10T06:58:31.517Z</time>
      </trkpt>
      <trkpt lat="48.64747" lon="-0.51865">
        <ele>238.503888</ele>
        <time>2024-11-10T06:58:55.983Z</time>
      </trkpt>
      <trkpt lat="48.64749" lon="-0.51792">
        <ele>241.018328</ele>
        <time>2024-11-10T06:59:51.396Z</time>
      </trkpt>
      <trkpt lat="48.64746" lon="-0.51774">
        <ele>241.682218</ele>
        <time>2024-11-10T07:00:06.209Z</time>
      </trkpt>
      <trkpt lat="48.64745" lon="-0.51771">
        <ele>241.805806</ele>
        <time>2024-11-10T07:00:09.025Z</time>
      </trkpt>
      <trkpt lat="48.64739" lon="-0.51763">
        <ele>242.204644</ele>
        <time>2024-11-10T07:00:18.071Z</time>
      </trkpt>
      <trkpt lat="48.6473" lon="-0.51758">
        <ele>242.692358</ele>
        <time>2024-11-10T07:00:29.112Z</time>
      </trkpt>
      <trkpt lat="48.64717" lon="-0.51756">
        <ele>243.389593</ele>
        <time>2024-11-10T07:00:45.154Z</time>
      </trkpt>
      <trkpt lat="48.64689" lon="-0.51758">
        <ele>244.836458</ele>
        <time>2024-11-10T07:01:19.107Z</time>
      </trkpt>
      <trkpt lat="48.64695" lon="-0.51653">
        <ele>248.300026</ele>
        <time>2024-11-10T07:02:44.251Z</time>
      </trkpt>
      <trkpt lat="48.647" lon="-0.51593">
        <ele>250.10673</ele>
        <time>2024-11-10T07:03:31.296Z</time>
      </trkpt>
      <trkpt lat="48.64704" lon="-0.51551">
        <ele>251.350058</ele>
        <time>2024-11-10T07:04:03.250Z</time>
      </trkpt>
      <trkpt lat="48.6471" lon="-0.51467">
        <ele>253.880642</ele>
        <time>2024-11-10T07:05:06.484Z</time>
      </trkpt>
      <trkpt lat="48.64719" lon="-0.51346">
        <ele>257.301187</ele>
        <time>2024-11-10T07:06:36.598Z</time>
      </trkpt>
      <trkpt lat="48.64725" lon="-0.51305">
        <ele>258.418011</ele>
        <time>2024-11-10T07:07:07.596Z</time>
      </trkpt>
      <trkpt lat="48.6473" lon="-0.51284">
        <ele>259.016419</ele>
        <time>2024-11-10T07:07:24.289Z</time>
      </trkpt>
      <trkpt lat="48.64742" lon="-0.51254">
        <ele>259.966019</ele>
        <time>2024-11-10T07:07:51.075Z</time>
      </trkpt>
      <trkpt lat="48.64801" lon="-0.51102">
        <ele>264.867937</ele>
        <time>2024-11-10T07:10:06.844Z</time>
      </trkpt>
      <trkpt lat="48.64867" lon="-0.50936">
        <ele>270.483073</ele>
        <time>2024-11-10T07:12:34.621Z</time>
      </trkpt>
      <trkpt lat="48.64875" lon="-0.50911">
        <ele>271.048991</ele>
        <time>2024-11-10T07:12:55.022Z</time>
      </trkpt>
      <trkpt lat="48.64882" lon="-0.50796">
        <ele>273.425027</ele>
        <time>2024-11-10T07:14:21.013Z</time>
      </trkpt>
      <trkpt lat="48.64882" lon="-0.50769">
        <ele>273.977484</ele>
        <time>2024-11-10T07:14:40.833Z</time>
      </trkpt>
      <trkpt lat="48.64877" lon="-0.50749">
        <ele>274.420472</ele>
        <time>2024-11-10T07:14:56.648Z</time>
      </trkpt>
      <trkpt lat="48.64846" lon="-0.50717">
        <ele>275.575647</ele>
        <time>2024-11-10T07:15:37.184Z</time>
      </trkpt>
      <trkpt lat="48.64795" lon="-0.50654">
        <ele>276.192674</ele>
        <time>2024-11-10T07:16:47.604Z</time>
      </trkpt>
      <trkpt lat="48.64764" lon="-0.50247">
        <ele>276.567081</ele>
        <time>2024-11-10T07:21:20.829Z</time>
      </trkpt>
      <trkpt lat="48.64539" lon="-0.50222">
        <ele>279.316569</ele>
        <time>2024-11-10T07:25:17.466Z</time>
      </trkpt>
      <trkpt lat="48.64512" lon="-0.5021">
        <ele>279.901894</ele>
        <time>2024-11-10T07:25:48.469Z</time>
      </trkpt>
      <trkpt lat="48.64487" lon="-0.50188">
        <ele>280.505062</ele>
        <time>2024-11-10T07:26:20.352Z</time>
      </trkpt>
      <trkpt lat="48.6442" lon="-0.50129">
        <ele>282.116681</ele>
        <time>2024-11-10T07:27:44.832Z</time>
      </trkpt>
      <trkpt lat="48.64339" lon="-0.50059">
        <ele>283.140429</ele>
        <time>2024-11-10T07:29:22.536Z</time>
      </trkpt>
      <trkpt lat="48.64143" lon="-0.49886">
        <ele>282.380521</ele>
        <time>2024-11-10T07:33:09.897Z</time>
      </trkpt>
      <trkpt lat="48.64239" lon="-0.49873">
        <ele>280.659128</ele>
        <time>2024-11-10T07:34:51.000Z</time>
      </trkpt>
      <trkpt lat="48.64246" lon="-0.49874">
        <ele>280.383131</ele>
        <time>2024-11-10T07:34:58.686Z</time>
      </trkpt>
      <trkpt lat="48.64309" lon="-0.49886">
        <ele>277.903706</ele>
        <time>2024-11-10T07:36:07.950Z</time>
      </trkpt>
      <trkpt lat="48.64333" lon="-0.49873">
        <ele>276.899949</ele>
        <time>2024-11-10T07:36:36.046Z</time>
      </trkpt>
      <trkpt lat="48.64364" lon="-0.49829">
        <ele>275.237576</ele>
        <time>2024-11-10T07:37:22.515Z</time>
      </trkpt>
      <trkpt lat="48.6437" lon="-0.49838">
        <ele>274.899584</ele>
        <time>2024-11-10T07:37:31.924Z</time>
      </trkpt>
      <trkpt lat="48.64401" lon="-0.4979">
        <ele>273.767051</ele>
        <time>2024-11-10T07:38:19.524Z</time>
      </trkpt>
      <trkpt lat="48.64506" lon="-0.49695">
        <ele>271.371923</ele>
        <time>2024-11-10T07:40:27.025Z</time>
      </trkpt>
      <trkpt lat="48.64539" lon="-0.49591">
        <ele>271.734407</ele>
        <time>2024-11-10T07:41:45.041Z</time>
      </trkpt>
      <trkpt lat="48.64615" lon="-0.49404">
        <ele>274.356433</ele>
        <time>2024-11-10T07:44:23.954Z</time>
      </trkpt>
      <trkpt lat="48.64642" lon="-0.49353">
        <ele>275.005716</ele>
        <time>2024-11-10T07:45:11.026Z</time>
      </trkpt>
      <trkpt lat="48.64666" lon="-0.4932">
        <ele>275.481005</ele>
        <time>2024-11-10T07:45:44.921Z</time>
      </trkpt>
      <trkpt lat="48.64727" lon="-0.49254">
        <ele>276.609907</ele>
        <time>2024-11-10T07:47:03.309Z</time>
      </trkpt>
      <trkpt lat="48.64779" lon="-0.49332">
        <ele>276.128383</ele>
        <time>2024-11-10T07:48:17.091Z</time>
      </trkpt>
      <trkpt lat="48.64874" lon="-0.49461">
        <ele>274.393203</ele>
        <time>2024-11-10T07:50:28.368Z</time>
      </trkpt>
      <trkpt lat="48.6505" lon="-0.49168">
        <ele>262.123134</ele>
        <time>2024-11-10T07:55:17.374Z</time>
      </trkpt>
      <trkpt lat="48.65076" lon="-0.49101">
        <ele>259.609454</ele>
        <time>2024-11-10T07:56:14.442Z</time>
      </trkpt>
      <trkpt lat="48.65141" lon="-0.49">
        <ele>258.05261</ele>
        <time>2024-11-10T07:57:55.404Z</time>
      </trkpt>
      <trkpt lat="48.65148" lon="-0.48966">
        <ele>258.266448</ele>
        <time>2024-11-10T07:58:19.368Z</time>
      </trkpt>
      <trkpt lat="48.65138" lon="-0.48882">
        <ele>258.773881</ele>
        <time>2024-11-10T07:59:20.211Z</time>
      </trkpt>
      <trkpt lat="48.65161" lon="-0.48855">
        <ele>259.03024</ele>
        <time>2024-11-10T07:59:52.757Z</time>
      </trkpt>
      <trkpt lat="48.65182" lon="-0.48879">
        <ele>259.665134</ele>
        <time>2024-11-10T08:00:23.903Z</time>
      </trkpt>
      <trkpt lat="48.65205" lon="-0.48919">
        <ele>261.934689</ele>
        <time>2024-11-10T08:01:06.854Z</time>
      </trkpt>
      <trkpt lat="48.65241" lon="-0.48967">
        <ele>264.980745</ele>
        <time>2024-11-10T08:02:05.881Z</time>
      </trkpt>
      <trkpt lat="48.65322" lon="-0.49038">
        <ele>270.932899</ele>
        <time>2024-11-10T08:04:02.958Z</time>
      </trkpt>
      <trkpt lat="48.65377" lon="-0.49056">
        <ele>272.74407</ele>
        <time>2024-11-10T08:05:10.343Z</time>
      </trkpt>
      <trkpt lat="48.6544" lon="-0.49096">
        <ele>274.970808</ele>
        <time>2024-11-10T08:06:27.757Z</time>
      </trkpt>
      <trkpt lat="48.65472" lon="-0.49122">
        <ele>276.156688</ele>
        <time>2024-11-10T08:07:05.201Z</time>
      </trkpt>
      <trkpt lat="48.65597" lon="-0.49264">
        <ele>274.311116</ele>
        <time>2024-11-10T08:09:48.988Z</time>
      </trkpt>
      <trkpt lat="48.65609" lon="-0.49287">
        <ele>273.981357</ele>
        <time>2024-11-10T08:10:09.907Z</time>
      </trkpt>
      <trkpt lat="48.65616" lon="-0.49313">
        <ele>273.685694</ele>
        <time>2024-11-10T08:10:28.379Z</time>
      </trkpt>
      <trkpt lat="48.65617" lon="-0.49345">
        <ele>273.946123</ele>
        <time>2024-11-10T08:10:50.372Z</time>
      </trkpt>
      <trkpt lat="48.65612" lon="-0.49412">
        <ele>274.547017</ele>
        <time>2024-11-10T08:11:35.597Z</time>
      </trkpt>
      <trkpt lat="48.6569" lon="-0.49367">
        <ele>275.669313</ele>
        <time>2024-11-10T08:13:05.122Z</time>
      </trkpt>
      <trkpt lat="48.65693" lon="-0.49355">
        <ele>275.791435</ele>
        <time>2024-11-10T08:13:15.220Z</time>
      </trkpt>
      <trkpt lat="48.65693" lon="-0.49326">
        <ele>276.048572</ele>
        <time>2024-11-10T08:13:36.841Z</time>
      </trkpt>
      <trkpt lat="48.65696" lon="-0.49319">
        <ele>276.15278</ele>
        <time>2024-11-10T08:13:43.001Z</time>
      </trkpt>
      <trkpt lat="48.65855" lon="-0.49244">
        <ele>280.893397</ele>
        <time>2024-11-10T08:16:47.799Z</time>
      </trkpt>
      <trkpt lat="48.65894" lon="-0.49226">
        <ele>281.553071</ele>
        <time>2024-11-10T08:17:31.366Z</time>
      </trkpt>
      <trkpt lat="48.65912" lon="-0.49212">
        <ele>281.788707</ele>
        <time>2024-11-10T08:17:52.589Z</time>
      </trkpt>
      <trkpt lat="48.65924" lon="-0.49191">
        <ele>282.006762</ele>
        <time>2024-11-10T08:18:12.069Z</time>
      </trkpt>
      <trkpt lat="48.66032" lon="-0.49112">
        <ele>283.34266</ele>
        <time>2024-11-10T08:20:15.804Z</time>
      </trkpt>
      <trkpt lat="48.66076" lon="-0.49364">
        <ele>283.550649</ele>
        <time>2024-11-10T08:23:09.519Z</time>
      </trkpt>
      <trkpt lat="48.66074" lon="-0.49389">
        <ele>284.065524</ele>
        <time>2024-11-10T08:23:26.497Z</time>
      </trkpt>
      <trkpt lat="48.66084" lon="-0.49392">
        <ele>284.393463</ele>
        <time>2024-11-10T08:23:37.375Z</time>
      </trkpt>
      <trkpt lat="48.66136" lon="-0.49385">
        <ele>286.044659</ele>
        <time>2024-11-10T08:24:34.287Z</time>
      </trkpt>
      <trkpt lat="48.66172" lon="-0.49398">
        <ele>287.200646</ele>
        <time>2024-11-10T08:25:15.998Z</time>
      </trkpt>
      <trkpt lat="48.6622" lon="-0.49456">
        <ele>289.158901</ele>
        <time>2024-11-10T08:26:28.747Z</time>
      </trkpt>
      <trkpt lat="48.66286" lon="-0.49501">
        <ele>291.331352</ele>
        <time>2024-11-10T08:27:52.694Z</time>
      </trkpt>
      <trkpt lat="48.66384" lon="-0.49518">
        <ele>294.316478</ele>
        <time>2024-11-10T08:29:41.561Z</time>
      </trkpt>
      <trkpt lat="48.66593" lon="-0.49585">
        <ele>293.367025</ele>
        <time>2024-11-10T08:33:18.401Z</time>
      </trkpt>
      <trkpt lat="48.66662" lon="-0.49588">
        <ele>292.07764</ele>
        <time>2024-11-10T08:34:29.642Z</time>
      </trkpt>
      <trkpt lat="48.66696" lon="-0.49586">
        <ele>291.458948</ele>
        <time>2024-11-10T08:35:04.186Z</time>
      </trkpt>
      <trkpt lat="48.66662" lon="-0.49588">
        <ele>290.840256</ele>
        <time>2024-11-10T08:35:39.065Z</time>
      </trkpt>
      <trkpt lat="48.66666" lon="-0.49511">
        <ele>289.219797</ele>
        <time>2024-11-10T08:36:32.818Z</time>
      </trkpt>
      <trkpt lat="48.66702" lon="-0.49055">
        <ele>276.792721</ele>
        <time>2024-11-10T08:42:04.022Z</time>
      </trkpt>
      <trkpt lat="48.66724" lon="-0.48869">
        <ele>272.998125</ele>
        <time>2024-11-10T08:44:16.197Z</time>
      </trkpt>
      <trkpt lat="48.66738" lon="-0.48812">
        <ele>271.895997</ele>
        <time>2024-11-10T08:44:58.120Z</time>
      </trkpt>
      <trkpt lat="48.66759" lon="-0.48781">
        <ele>271.097205</ele>
        <time>2024-11-10T08:45:28.587Z</time>
      </trkpt>
      <trkpt lat="48.66984" lon="-0.48476">
        <ele>260.482209</ele>
        <time>2024-11-10T08:50:52.588Z</time>
      </trkpt>
      <trkpt lat="48.67078" lon="-0.48356">
        <ele>255.745332</ele>
        <time>2024-11-10T08:53:06.031Z</time>
      </trkpt>
      <trkpt lat="48.67121" lon="-0.48278">
        <ele>253.083056</ele>
        <time>2024-11-10T08:54:19.478Z</time>
      </trkpt>
      <trkpt lat="48.6723" lon="-0.47981">
        <ele>246.05433</ele>
        <time>2024-11-10T08:58:19.471Z</time>
      </trkpt>
      <trkpt lat="48.67292" lon="-0.48009">
        <ele>245.73154</ele>
        <time>2024-11-10T08:59:24.820Z</time>
      </trkpt>
      <trkpt lat="48.67386" lon="-0.48086">
        <ele>245.908232</ele>
        <time>2024-11-10T09:01:14.712Z</time>
      </trkpt>
      <trkpt lat="48.67413" lon="-0.48111">
        <ele>246.029349</ele>
        <time>2024-11-10T09:01:46.934Z</time>
      </trkpt>
      <trkpt lat="48.67448" lon="-0.48142">
        <ele>246.4289</ele>
        <time>2024-11-10T09:02:28.824Z</time>
      </trkpt>
      <trkpt lat="48.67507" lon="-0.48216">
        <ele>247.17663</ele>
        <time>2024-11-10T09:03:47.873Z</time>
      </trkpt>
      <trkpt lat="48.67585" lon="-0.4834">
        <ele>248.892883</ele>
        <time>2024-11-10T09:05:46.009Z</time>
      </trkpt>
      <trkpt lat="48.67478" lon="-0.48419">
        <ele>251.286381</ele>
        <time>2024-11-10T09:07:53.382Z</time>
      </trkpt>
      <trkpt lat="48.67369" lon="-0.4857">
        <ele>256.195353</ele>
        <time>2024-11-10T09:10:40.030Z</time>
      </trkpt>
      <trkpt lat="48.67333" lon="-0.48646">
        <ele>258.545714</ele>
        <time>2024-11-10T09:11:49.099Z</time>
      </trkpt>
      <trkpt lat="48.67323" lon="-0.48698">
        <ele>260.066933</ele>
        <time>2024-11-10T09:12:28.199Z</time>
      </trkpt>
      <trkpt lat="48.67301" lon="-0.48741">
        <ele>261.610832</ele>
        <time>2024-11-10T09:13:08.525Z</time>
      </trkpt>
      <trkpt lat="48.67268" lon="-0.48786">
        <ele>263.525223</ele>
        <time>2024-11-10T09:13:59.938Z</time>
      </trkpt>
      <trkpt lat="48.67245" lon="-0.4883">
        <ele>265.136303</ele>
        <time>2024-11-10T09:14:44.358Z</time>
      </trkpt>
      <trkpt lat="48.67217" lon="-0.48865">
        <ele>267.819039</ele>
        <time>2024-11-10T09:15:29.199Z</time>
      </trkpt>
      <trkpt lat="48.67192" lon="-0.48882">
        <ele>269.880276</ele>
        <time>2024-11-10T09:16:04.695Z</time>
      </trkpt>
      <trkpt lat="48.67137" lon="-0.48909">
        <ele>274.162819</ele>
        <time>2024-11-10T09:17:19.003Z</time>
      </trkpt>
      <trkpt lat="48.6712" lon="-0.48923">
        <ele>275.625759</ele>
        <time>2024-11-10T09:17:44.115Z</time>
      </trkpt>
      <trkpt lat="48.67109" lon="-0.48943">
        <ele>276.886388</ele>
        <time>2024-11-10T09:18:05.477Z</time>
      </trkpt>
      <trkpt lat="48.67097" lon="-0.48974">
        <ele>278.566413</ele>
        <time>2024-11-10T09:18:34.883Z</time>
      </trkpt>
      <trkpt lat="48.67066" lon="-0.49024">
        <ele>280.73649</ele>
        <time>2024-11-10T09:19:29.617Z</time>
      </trkpt>
      <trkpt lat="48.67057" lon="-0.49079">
        <ele>282.536399</ele>
        <time>2024-11-10T09:20:13.565Z</time>
      </trkpt>
      <trkpt lat="48.67042" lon="-0.49134">
        <ele>284.448303</ele>
        <time>2024-11-10T09:20:59.085Z</time>
      </trkpt>
      <trkpt lat="48.67036" lon="-0.49183">
        <ele>286.046748</ele>
        <time>2024-11-10T09:21:36.344Z</time>
      </trkpt>
      <trkpt lat="48.67034" lon="-0.49271">
        <ele>287.850139</ele>
        <time>2024-11-10T09:22:40.593Z</time>
      </trkpt>
      <trkpt lat="48.67012" lon="-0.49434">
        <ele>290.101599</ele>
        <time>2024-11-10T09:24:38.560Z</time>
      </trkpt>
      <trkpt lat="48.67005" lon="-0.49455">
        <ele>290.422062</ele>
        <time>2024-11-10T09:24:54.807Z</time>
      </trkpt>
      <trkpt lat="48.66953" lon="-0.49562">
        <ele>291.055195</ele>
        <time>2024-11-10T09:26:24.964Z</time>
      </trkpt>
      <trkpt lat="48.6693" lon="-0.49644">
        <ele>291.26419</ele>
        <time>2024-11-10T09:27:24.547Z</time>
      </trkpt>
      <trkpt lat="48.67035" lon="-0.49736">
        <ele>289.056964</ele>
        <time>2024-11-10T09:29:26.859Z</time>
      </trkpt>
      <trkpt lat="48.67099" lon="-0.49737">
        <ele>286.854216</ele>
        <time>2024-11-10T09:30:35.763Z</time>
      </trkpt>
      <trkpt lat="48.6714" lon="-0.49802">
        <ele>284.452648</ele>
        <time>2024-11-10T09:31:42.838Z</time>
      </trkpt>
      <trkpt lat="48.67232" lon="-0.49856">
        <ele>278.053375</ele>
        <time>2024-11-10T09:33:37.411Z</time>
      </trkpt>
      <trkpt lat="48.6726" lon="-0.49878">
        <ele>276.026217</ele>
        <time>2024-11-10T09:34:12.917Z</time>
      </trkpt>
      <trkpt lat="48.67311" lon="-0.49975">
        <ele>272.185876</ele>
        <time>2024-11-10T09:35:42.340Z</time>
      </trkpt>
      <trkpt lat="48.6738" lon="-0.50037">
        <ele>269.568343</ele>
        <time>2024-11-10T09:37:07.590Z</time>
      </trkpt>
      <trkpt lat="48.67427" lon="-0.50105">
        <ele>267.468589</ele>
        <time>2024-11-10T09:38:15.304Z</time>
      </trkpt>
      <trkpt lat="48.67461" lon="-0.50139">
        <ele>266.126817</ele>
        <time>2024-11-10T09:38:58.446Z</time>
      </trkpt>
      <trkpt lat="48.6751" lon="-0.50161">
        <ele>264.459941</ele>
        <time>2024-11-10T09:39:52.487Z</time>
      </trkpt>
      <trkpt lat="48.67547" lon="-0.50185">
        <ele>263.141775</ele>
        <time>2024-11-10T09:40:35.643Z</time>
      </trkpt>
      <trkpt lat="48.67651" lon="-0.50205">
        <ele>258.776229</ele>
        <time>2024-11-10T09:42:29.986Z</time>
      </trkpt>
      <trkpt lat="48.67718" lon="-0.50211">
        <ele>255.655292</ele>
        <time>2024-11-10T09:43:43.714Z</time>
      </trkpt>
      <trkpt lat="48.67752" lon="-0.50227">
        <ele>253.968562</ele>
        <time>2024-11-10T09:44:23.756Z</time>
      </trkpt>
      <trkpt lat="48.67826" lon="-0.5032">
        <ele>250.600485</ele>
        <time>2024-11-10T09:46:08.410Z</time>
      </trkpt>
      <trkpt lat="48.67903" lon="-0.50397">
        <ele>247.49924</ele>
        <time>2024-11-10T09:47:45.099Z</time>
      </trkpt>
      <trkpt lat="48.67932" lon="-0.5042">
        <ele>246.87565</ele>
        <time>2024-11-10T09:48:19.151Z</time>
      </trkpt>
      <trkpt lat="48.67973" lon="-0.50428">
        <ele>246.115554</ele>
        <time>2024-11-10T09:49:02.403Z</time>
      </trkpt>
      <trkpt lat="48.68073" lon="-0.50428">
        <ele>244.324216</ele>
        <time>2024-11-10T09:50:44.899Z</time>
      </trkpt>
      <trkpt lat="48.68155" lon="-0.50462">
        <ele>241.821954</ele>
        <time>2024-11-10T09:52:14.981Z</time>
      </trkpt>
      <trkpt lat="48.68201" lon="-0.50465">
        <ele>240.415599</ele>
        <time>2024-11-10T09:53:04.341Z</time>
      </trkpt>
      <trkpt lat="48.68395" lon="-0.50539">
        <ele>233.857272</ele>
        <time>2024-11-10T09:56:39.094Z</time>
      </trkpt>
      <trkpt lat="48.68421" lon="-0.50545">
        <ele>232.956295</ele>
        <time>2024-11-10T09:57:07.554Z</time>
      </trkpt>
      <trkpt lat="48.68442" lon="-0.50557">
        <ele>232.415279</ele>
        <time>2024-11-10T09:57:30.776Z</time>
      </trkpt>
      <trkpt lat="48.68462" lon="-0.50586">
        <ele>231.905605</ele>
        <time>2024-11-10T09:57:59.998Z</time>
      </trkpt>
      <trkpt lat="48.68493" lon="-0.50654">
        <ele>230.904051</ele>
        <time>2024-11-10T09:58:56.931Z</time>
      </trkpt>
      <trkpt lat="48.68506" lon="-0.50695">
        <ele>230.35101</ele>
        <time>2024-11-10T09:59:28.100Z</time>
      </trkpt>
      <trkpt lat="48.68575" lon="-0.50834">
        <ele>228.638291</ele>
        <time>2024-11-10T10:01:25.282Z</time>
      </trkpt>
      <trkpt lat="48.68616" lon="-0.50901">
        <ele>227.926912</ele>
        <time>2024-11-10T10:02:26.932Z</time>
      </trkpt>
      <trkpt lat="48.68644" lon="-0.50936">
        <ele>227.4971</ele>
        <time>2024-11-10T10:03:04.412Z</time>
      </trkpt>
      <trkpt lat="48.68697" lon="-0.51017">
        <ele>226.224958</ele>
        <time>2024-11-10T10:04:21.850Z</time>
      </trkpt>
      <trkpt lat="48.68798" lon="-0.51135">
        <ele>223.754896</ele>
        <time>2024-11-10T10:06:35.247Z</time>
      </trkpt>
      <trkpt lat="48.68805" lon="-0.51146">
        <ele>223.645632</ele>
        <time>2024-11-10T10:06:46.134Z</time>
      </trkpt>
      <trkpt lat="48.68838" lon="-0.51193">
        <ele>223.193294</ele>
        <time>2024-11-10T10:07:32.484Z</time>
      </trkpt>
      <trkpt lat="48.68943" lon="-0.51405">
        <ele>222.564739</ele>
        <time>2024-11-10T10:10:30.772Z</time>
      </trkpt>
      <trkpt lat="48.68953" lon="-0.51424">
        <ele>222.766649</ele>
        <time>2024-11-10T10:10:47.454Z</time>
      </trkpt>
      <trkpt lat="48.68943" lon="-0.51405">
        <ele>222.96856</ele>
        <time>2024-11-10T10:11:04.301Z</time>
      </trkpt>
      <trkpt lat="48.69009" lon="-0.51359">
        <ele>223.877015</ele>
        <time>2024-11-10T10:12:22.028Z</time>
      </trkpt>
      <trkpt lat="48.69074" lon="-0.51282">
        <ele>225.399665</ele>
        <time>2024-11-10T10:13:53.624Z</time>
      </trkpt>
      <trkpt lat="48.69191" lon="-0.51174">
        <ele>227.903049</ele>
        <time>2024-11-10T10:16:20.056Z</time>
      </trkpt>
      <trkpt lat="48.69252" lon="-0.51145">
        <ele>227.755301</ele>
        <time>2024-11-10T10:17:25.220Z</time>
      </trkpt>
      <trkpt lat="48.6939" lon="-0.51056">
        <ele>226.53732</ele>
        <time>2024-11-10T10:19:58.119Z</time>
      </trkpt>
      <trkpt lat="48.69405" lon="-0.51043">
        <ele>226.189134</ele>
        <time>2024-11-10T10:20:16.084Z</time>
      </trkpt>
      <trkpt lat="48.69435" lon="-0.51025">
        <ele>225.532308</ele>
        <time>2024-11-10T10:20:50.292Z</time>
      </trkpt>
      <trkpt lat="48.69464" lon="-0.51024">
        <ele>224.946613</ele>
        <time>2024-11-10T10:21:20.919Z</time>
      </trkpt>
      <trkpt lat="48.69567" lon="-0.51053">
        <ele>222.816753</ele>
        <time>2024-11-10T10:23:10.802Z</time>
      </trkpt>
      <trkpt lat="48.69583" lon="-0.5101">
        <ele>222.140298</ele>
        <time>2024-11-10T10:23:45.043Z</time>
      </trkpt>
      <trkpt lat="48.69642" lon="-0.51025">
        <ele>220.879747</ele>
        <time>2024-11-10T10:24:48.072Z</time>
      </trkpt>
      <trkpt lat="48.69725" lon="-0.5106">
        <ele>219.448065</ele>
        <time>2024-11-10T10:26:15.664Z</time>
      </trkpt>
      <trkpt lat="48.69738" lon="-0.51045">
        <ele>219.209523</ele>
        <time>2024-11-10T10:26:32.935Z</time>
      </trkpt>
      <trkpt lat="48.69839" lon="-0.51084">
        <ele>217.74209</ele>
        <time>2024-11-10T10:28:20.065Z</time>
      </trkpt>
      <trkpt lat="48.69825" lon="-0.5119">
        <ele>216.332015</ele>
        <time>2024-11-10T10:29:34.631Z</time>
      </trkpt>
      <trkpt lat="48.69808" lon="-0.51268">
        <ele>215.220206</ele>
        <time>2024-11-10T10:30:31.981Z</time>
      </trkpt>
      <trkpt lat="48.69796" lon="-0.51305">
        <ele>214.674366</ele>
        <time>2024-11-10T10:30:59.952Z</time>
      </trkpt>
      <trkpt lat="48.69782" lon="-0.51326">
        <ele>214.270837</ele>
        <time>2024-11-10T10:31:20.516Z</time>
      </trkpt>
      <trkpt lat="48.69769" lon="-0.51341">
        <ele>213.950681</ele>
        <time>2024-11-10T10:31:38.272Z</time>
      </trkpt>
      <trkpt lat="48.69737" lon="-0.51363">
        <ele>213.864736</ele>
        <time>2024-11-10T10:32:14.090Z</time>
      </trkpt>
      <trkpt lat="48.69724" lon="-0.51377">
        <ele>213.824746</ele>
        <time>2024-11-10T10:32:30.526Z</time>
      </trkpt>
      <trkpt lat="48.69679" lon="-0.51448">
        <ele>213.665526</ele>
        <time>2024-11-10T10:33:35.367Z</time>
      </trkpt>
      <trkpt lat="48.69659" lon="-0.51488">
        <ele>213.584404</ele>
        <time>2024-11-10T10:34:08.848Z</time>
      </trkpt>
      <trkpt lat="48.69646" lon="-0.51524">
        <ele>213.517367</ele>
        <time>2024-11-10T10:34:36.743Z</time>
      </trkpt>
      <trkpt lat="48.69634" lon="-0.51578">
        <ele>214.131461</ele>
        <time>2024-11-10T10:35:15.296Z</time>
      </trkpt>
      <trkpt lat="48.6961" lon="-0.51691">
        <ele>215.497628</ele>
        <time>2024-11-10T10:36:38.282Z</time>
      </trkpt>
      <trkpt lat="48.696" lon="-0.51722">
        <ele>215.892203</ele>
        <time>2024-11-10T10:37:02.754Z</time>
      </trkpt>
      <trkpt lat="48.69586" lon="-0.51767">
        <ele>216.472453</ele>
        <time>2024-11-10T10:37:39.150Z</time>
      </trkpt>
      <trkpt lat="48.69568" lon="-0.51827">
        <ele>217.167029</ele>
        <time>2024-11-10T10:38:26.649Z</time>
      </trkpt>
      <trkpt lat="48.69561" lon="-0.51856">
        <ele>217.489324</ele>
        <time>2024-11-10T10:38:49.383Z</time>
      </trkpt>
      <trkpt lat="48.69557" lon="-0.51906">
        <ele>218.008428</ele>
        <time>2024-11-10T10:39:25.915Z</time>
      </trkpt>
      <trkpt lat="48.6955" lon="-0.51949">
        <ele>218.460985</ele>
        <time>2024-11-10T10:39:56.615Z</time>
      </trkpt>
      <trkpt lat="48.69519" lon="-0.52035">
        <ele>219.461421</ele>
        <time>2024-11-10T10:41:02.412Z</time>
      </trkpt>
      <trkpt lat="48.6951" lon="-0.52062">
        <ele>219.172707</ele>
        <time>2024-11-10T10:41:22.911Z</time>
      </trkpt>
      <trkpt lat="48.69491" lon="-0.52142">
        <ele>218.371898</ele>
        <time>2024-11-10T10:42:21.002Z</time>
      </trkpt>
      <trkpt lat="48.69476" lon="-0.52226">
        <ele>217.551962</ele>
        <time>2024-11-10T10:43:21.109Z</time>
      </trkpt>
      <trkpt lat="48.69467" lon="-0.523">
        <ele>216.904117</ele>
        <time>2024-11-10T10:44:12.960Z</time>
      </trkpt>
      <trkpt lat="48.69457" lon="-0.52287">
        <ele>216.912176</ele>
        <time>2024-11-10T10:44:27.014Z</time>
      </trkpt>
      <trkpt lat="48.69467" lon="-0.523">
        <ele>216.920236</ele>
        <time>2024-11-10T10:44:40.984Z</time>
      </trkpt>
      <trkpt lat="48.69466" lon="-0.52311">
        <ele>216.924524</ele>
        <time>2024-11-10T10:44:48.422Z</time>
      </trkpt>
      <trkpt lat="48.69483" lon="-0.52332">
        <ele>216.937164</ele>
        <time>2024-11-10T10:45:09.960Z</time>
      </trkpt>
      <trkpt lat="48.69495" lon="-0.52345">
        <ele>216.945982</ele>
        <time>2024-11-10T10:45:24.852Z</time>
      </trkpt>
      <trkpt lat="48.69508" lon="-0.52357">
        <ele>216.954971</ele>
        <time>2024-11-10T10:45:40.452Z</time>
      </trkpt>
      <trkpt lat="48.69497" lon="-0.5234">
        <ele>216.964087</ele>
        <time>2024-11-10T10:45:56.479Z</time>
      </trkpt>
      <trkpt lat="48.69512" lon="-0.52295">
        <ele>216.984149</ele>
        <time>2024-11-10T10:46:31.909Z</time>
      </trkpt>
      <trkpt lat="48.69566" lon="-0.52228">
        <ele>216.73629</ele>
        <time>2024-11-10T10:47:42.836Z</time>
      </trkpt>
      <trkpt lat="48.69592" lon="-0.5224">
        <ele>216.469585</ele>
        <time>2024-11-10T10:48:10.538Z</time>
      </trkpt>
      <trkpt lat="48.69632" lon="-0.52241">
        <ele>216.085679</ele>
        <time>2024-11-10T10:48:51.027Z</time>
      </trkpt>
      <trkpt lat="48.69722" lon="-0.52286">
        <ele>215.168736</ele>
        <time>2024-11-10T10:50:30.638Z</time>
      </trkpt>
      <trkpt lat="48.69751" lon="-0.52259">
        <ele>214.854125</ele>
        <time>2024-11-10T10:51:05.991Z</time>
      </trkpt>
      <trkpt lat="48.69821" lon="-0.52181">
        <ele>214.049193</ele>
        <time>2024-11-10T10:52:34.657Z</time>
      </trkpt>
      <trkpt lat="48.69858" lon="-0.52161">
        <ele>213.691233</ele>
        <time>2024-11-10T10:53:13.561Z</time>
      </trkpt>
      <trkpt lat="48.69945" lon="-0.5213">
        <ele>212.988028</ele>
        <time>2024-11-10T10:54:43.472Z</time>
      </trkpt>
      <trkpt lat="48.70005" lon="-0.52127">
        <ele>212.53052</ele>
        <time>2024-11-10T10:55:44.112Z</time>
      </trkpt>
      <trkpt lat="48.70065" lon="-0.5213">
        <ele>211.909437</ele>
        <time>2024-11-10T10:56:46.675Z</time>
      </trkpt>
      <trkpt lat="48.70122" lon="-0.52122">
        <ele>211.043368</ele>
        <time>2024-11-10T10:57:46.106Z</time>
      </trkpt>
      <trkpt lat="48.70172" lon="-0.52101">
        <ele>210.245891</ele>
        <time>2024-11-10T10:58:40.413Z</time>
      </trkpt>
      <trkpt lat="48.70199" lon="-0.52076">
        <ele>209.760054</ele>
        <time>2024-11-10T10:59:13.118Z</time>
      </trkpt>
      <trkpt lat="48.70229" lon="-0.52042">
        <ele>209.507021</ele>
        <time>2024-11-10T10:59:50.699Z</time>
      </trkpt>
      <trkpt lat="48.70261" lon="-0.52029">
        <ele>209.552223</ele>
        <time>2024-11-10T11:00:24.050Z</time>
      </trkpt>
      <trkpt lat="48.70313" lon="-0.52029">
        <ele>209.623952</ele>
        <time>2024-11-10T11:01:17.799Z</time>
      </trkpt>
      <trkpt lat="48.70302" lon="-0.52151">
        <ele>209.727444</ele>
        <time>2024-11-10T11:02:41.591Z</time>
      </trkpt>
      <trkpt lat="48.70256" lon="-0.52515">
        <ele>209.628258</ele>
        <time>2024-11-10T11:06:46.187Z</time>
      </trkpt>
      <trkpt lat="48.70249" lon="-0.52621">
        <ele>209.499592</ele>
        <time>2024-11-10T11:07:56.868Z</time>
      </trkpt>
      <trkpt lat="48.70261" lon="-0.5276">
        <ele>208.839194</ele>
        <time>2024-11-10T11:09:30.526Z</time>
      </trkpt>
      <trkpt lat="48.70279" lon="-0.52881">
        <ele>207.948695</ele>
        <time>2024-11-10T11:10:53.991Z</time>
      </trkpt>
      <trkpt lat="48.70283" lon="-0.5292">
        <ele>207.663992</ele>
        <time>2024-11-10T11:11:20.996Z</time>
      </trkpt>
      <trkpt lat="48.70335" lon="-0.52968">
        <ele>206.728244</ele>
        <time>2024-11-10T11:12:24.938Z</time>
      </trkpt>
      <trkpt lat="48.70341" lon="-0.52973">
        <ele>206.600517</ele>
        <time>2024-11-10T11:12:32.707Z</time>
      </trkpt>
      <trkpt lat="48.70529" lon="-0.53148">
        <ele>204.002147</ele>
        <time>2024-11-10T11:16:20.406Z</time>
      </trkpt>
      <trkpt lat="48.7053" lon="-0.53155">
        <ele>203.98095</ele>
        <time>2024-11-10T11:16:25.500Z</time>
      </trkpt>
      <trkpt lat="48.70543" lon="-0.53167">
        <ele>203.916945</ele>
        <time>2024-11-10T11:16:40.815Z</time>
      </trkpt>
      <trkpt lat="48.70584" lon="-0.53207">
        <ele>203.714586</ele>
        <time>2024-11-10T11:17:30.604Z</time>
      </trkpt>
      <trkpt lat="48.70602" lon="-0.53224">
        <ele>203.649725</ele>
        <time>2024-11-10T11:17:53.390Z</time>
      </trkpt>
      <trkpt lat="48.70622" lon="-0.5325">
        <ele>204.065564</ele>
        <time>2024-11-10T11:18:20.961Z</time>
      </trkpt>
      <trkpt lat="48.70635" lon="-0.5326">
        <ele>204.296919</ele>
        <time>2024-11-10T11:18:36.362Z</time>
      </trkpt>
      <trkpt lat="48.7064" lon="-0.53257">
        <ele>204.376622</ele>
        <time>2024-11-10T11:18:41.695Z</time>
      </trkpt>
      <trkpt lat="48.70647" lon="-0.53252">
        <ele>204.49959</ele>
        <time>2024-11-10T11:18:49.861Z</time>
      </trkpt>
      <trkpt lat="48.70659" lon="-0.53234">
        <ele>204.773959</ele>
        <time>2024-11-10T11:19:07.943Z</time>
      </trkpt>
      <trkpt lat="48.70663" lon="-0.53232">
        <ele>204.835635</ele>
        <time>2024-11-10T11:19:12.061Z</time>
      </trkpt>
      <trkpt lat="48.70657" lon="-0.53247">
        <ele>205.013611</ele>
        <time>2024-11-10T11:19:23.800Z</time>
      </trkpt>
      <trkpt lat="48.70658" lon="-0.5327">
        <ele>205.253054</ele>
        <time>2024-11-10T11:19:39.634Z</time>
      </trkpt>
      <trkpt lat="48.7066" lon="-0.53285">
        <ele>205.414077</ele>
        <time>2024-11-10T11:19:50.445Z</time>
      </trkpt>
      <trkpt lat="48.70672" lon="-0.53299">
        <ele>205.658472</ele>
        <time>2024-11-10T11:20:06.864Z</time>
      </trkpt>
      <trkpt lat="48.70678" lon="-0.53303">
        <ele>205.752515</ele>
        <time>2024-11-10T11:20:13.262Z</time>
      </trkpt>
      <trkpt lat="48.70672" lon="-0.53299">
        <ele>205.846558</ele>
        <time>2024-11-10T11:20:19.692Z</time>
      </trkpt>
      <trkpt lat="48.7066" lon="-0.53285">
        <ele>206.090953</ele>
        <time>2024-11-10T11:20:36.337Z</time>
      </trkpt>
      <trkpt lat="48.70658" lon="-0.5327">
        <ele>206.251975</ele>
        <time>2024-11-10T11:20:47.340Z</time>
      </trkpt>
      <trkpt lat="48.70657" lon="-0.53247">
        <ele>206.499171</ele>
        <time>2024-11-10T11:21:03.445Z</time>
      </trkpt>
      <trkpt lat="48.70663" lon="-0.53232">
        <ele>206.767198</ele>
        <time>2024-11-10T11:21:15.402Z</time>
      </trkpt>
      <trkpt lat="48.70698" lon="-0.53222">
        <ele>207.61149</ele>
        <time>2024-11-10T11:21:53.541Z</time>
      </trkpt>
      <trkpt lat="48.70735" lon="-0.53219">
        <ele>208.489924</ele>
        <time>2024-11-10T11:22:33.634Z</time>
      </trkpt>
      <trkpt lat="48.70761" lon="-0.5321">
        <ele>209.129086</ele>
        <time>2024-11-10T11:23:03.254Z</time>
      </trkpt>
      <trkpt lat="48.70838" lon="-0.53163">
        <ele>211.002233</ele>
        <time>2024-11-10T11:24:34.607Z</time>
      </trkpt>
      <trkpt lat="48.70887" lon="-0.53147">
        <ele>211.774141</ele>
        <time>2024-11-10T11:25:27.150Z</time>
      </trkpt>
      <trkpt lat="48.70975" lon="-0.53126">
        <ele>213.185156</ele>
        <time>2024-11-10T11:27:01.554Z</time>
      </trkpt>
      <trkpt lat="48.71031" lon="-0.531">
        <ele>213.892261</ele>
        <time>2024-11-10T11:28:01.417Z</time>
      </trkpt>
      <trkpt lat="48.71038" lon="-0.53096">
        <ele>213.961348</ele>
        <time>2024-11-10T11:28:09.003Z</time>
      </trkpt>
      <trkpt lat="48.71153" lon="-0.53039">
        <ele>215.108083</ele>
        <time>2024-11-10T11:30:13.756Z</time>
      </trkpt>
      <trkpt lat="48.71163" lon="-0.53038">
        <ele>215.194068</ele>
        <time>2024-11-10T11:30:23.326Z</time>
      </trkpt>
      <trkpt lat="48.71159" lon="-0.53104">
        <ele>215.989169</ele>
        <time>2024-11-10T11:31:09.224Z</time>
      </trkpt>
      <trkpt lat="48.71162" lon="-0.53119">
        <ele>216.197629</ele>
        <time>2024-11-10T11:31:19.985Z</time>
      </trkpt>
      <trkpt lat="48.71183" lon="-0.53107">
        <ele>216.655923</ele>
        <time>2024-11-10T11:31:43.870Z</time>
      </trkpt>
      <trkpt lat="48.71214" lon="-0.53082">
        <ele>217.376279</ele>
        <time>2024-11-10T11:32:21.889Z</time>
      </trkpt>
      <trkpt lat="48.71223" lon="-0.53075">
        <ele>217.590901</ele>
        <time>2024-11-10T11:32:33.257Z</time>
      </trkpt>
      <trkpt lat="48.71232" lon="-0.53069">
        <ele>217.787715</ele>
        <time>2024-11-10T11:32:43.615Z</time>
      </trkpt>
      <trkpt lat="48.71255" lon="-0.53057">
        <ele>218.297889</ele>
        <time>2024-11-10T11:33:10.517Z</time>
      </trkpt>
      <trkpt lat="48.71276" lon="-0.53052">
        <ele>218.72746</ele>
        <time>2024-11-10T11:33:33.120Z</time>
      </trkpt>
      <trkpt lat="48.71295" lon="-0.53053">
        <ele>219.112347</ele>
        <time>2024-11-10T11:33:54.131Z</time>
      </trkpt>
      <trkpt lat="48.71303" lon="-0.53055">
        <ele>219.268445</ele>
        <time>2024-11-10T11:34:03.106Z</time>
      </trkpt>
      <trkpt lat="48.71312" lon="-0.53057">
        <ele>219.433912</ele>
        <time>2024-11-10T11:34:12.558Z</time>
      </trkpt>
      <trkpt lat="48.7133" lon="-0.53069">
        <ele>219.808687</ele>
        <time>2024-11-10T11:34:33.874Z</time>
      </trkpt>
      <trkpt lat="48.71353" lon="-0.53093">
        <ele>220.345238</ele>
        <time>2024-11-10T11:35:04.660Z</time>
      </trkpt>
      <trkpt lat="48.71358" lon="-0.53098">
        <ele>220.448218</ele>
        <time>2024-11-10T11:35:10.561Z</time>
      </trkpt>
      <trkpt lat="48.71369" lon="-0.53111">
        <ele>220.718508</ele>
        <time>2024-11-10T11:35:25.974Z</time>
      </trkpt>
      <trkpt lat="48.71389" lon="-0.53107">
        <ele>221.108929</ele>
        <time>2024-11-10T11:35:48.214Z</time>
      </trkpt>
      <trkpt lat="48.71403" lon="-0.53103">
        <ele>221.378161</ele>
        <time>2024-11-10T11:36:03.287Z</time>
      </trkpt>
      <trkpt lat="48.71437" lon="-0.53091">
        <ele>222.033888</ele>
        <time>2024-11-10T11:36:39.200Z</time>
      </trkpt>
      <trkpt lat="48.71453" lon="-0.53086">
        <ele>222.354274</ele>
        <time>2024-11-10T11:36:56.626Z</time>
      </trkpt>
      <trkpt lat="48.71471" lon="-0.53083">
        <ele>222.344308</ele>
        <time>2024-11-10T11:37:14.949Z</time>
      </trkpt>
      <trkpt lat="48.71473" lon="-0.53079">
        <ele>222.330757</ele>
        <time>2024-11-10T11:37:18.553Z</time>
      </trkpt>
      <trkpt lat="48.71478" lon="-0.53072">
        <ele>222.30462</ele>
        <time>2024-11-10T11:37:25.680Z</time>
      </trkpt>
      <trkpt lat="48.71496" lon="-0.5308">
        <ele>222.232082</ele>
        <time>2024-11-10T11:37:45.108Z</time>
      </trkpt>
      <trkpt lat="48.71545" lon="-0.53101">
        <ele>222.03665</ele>
        <time>2024-11-10T11:38:35.985Z</time>
      </trkpt>
      <trkpt lat="48.71559" lon="-0.53107">
        <ele>221.980921</ele>
        <time>2024-11-10T11:38:50.676Z</time>
      </trkpt>
      <trkpt lat="48.71622" lon="-0.53108">
        <ele>221.738648</ele>
        <time>2024-11-10T11:39:55.842Z</time>
      </trkpt>
      <trkpt lat="48.71659" lon="-0.5312">
        <ele>221.416604</ele>
        <time>2024-11-10T11:40:35.205Z</time>
      </trkpt>
      <trkpt lat="48.71707" lon="-0.53153">
        <ele>220.905486</ele>
        <time>2024-11-10T11:41:29.985Z</time>
      </trkpt>
      <trkpt lat="48.71838" lon="-0.53261">
        <ele>220.20236</ele>
        <time>2024-11-10T11:44:00.478Z</time>
      </trkpt>
      <trkpt lat="48.71873" lon="-0.5332">
        <ele>220.424385</ele>
        <time>2024-11-10T11:44:53.954Z</time>
      </trkpt>
      <trkpt lat="48.71915" lon="-0.5341">
        <ele>220.730328</ele>
        <time>2024-11-10T11:46:09.312Z</time>
      </trkpt>
      <trkpt lat="48.71932" lon="-0.53461">
        <ele>220.808777</ele>
        <time>2024-11-10T11:46:48.874Z</time>
      </trkpt>
      <trkpt lat="48.7195" lon="-0.5355">
        <ele>220.927013</ele>
        <time>2024-11-10T11:47:51.999Z</time>
      </trkpt>
      <trkpt lat="48.71925" lon="-0.53695">
        <ele>220.792521</ele>
        <time>2024-11-10T11:49:32.002Z</time>
      </trkpt>
      <trkpt lat="48.71913" lon="-0.5374">
        <ele>220.209905</ele>
        <time>2024-11-10T11:50:05.131Z</time>
      </trkpt>
      <trkpt lat="48.71889" lon="-0.53827">
        <ele>219.067215</ele>
        <time>2024-11-10T11:51:10.243Z</time>
      </trkpt>
      <trkpt lat="48.71879" lon="-0.53887">
        <ele>218.312567</ele>
        <time>2024-11-10T11:51:53.237Z</time>
      </trkpt>
      <trkpt lat="48.71854" lon="-0.54051">
        <ele>216.018637</ele>
        <time>2024-11-10T11:53:48.445Z</time>
      </trkpt>
      <trkpt lat="48.71846" lon="-0.54053">
        <ele>215.830726</ele>
        <time>2024-11-10T11:53:57.443Z</time>
      </trkpt>
      <trkpt lat="48.71841" lon="-0.54064">
        <ele>215.643006</ele>
        <time>2024-11-10T11:54:06.441Z</time>
      </trkpt>
      <trkpt lat="48.71825" lon="-0.54078">
        <ele>215.238657</ele>
        <time>2024-11-10T11:54:25.977Z</time>
      </trkpt>
      <trkpt lat="48.71817" lon="-0.54079">
        <ele>215.076642</ele>
        <time>2024-11-10T11:54:33.737Z</time>
      </trkpt>
      <trkpt lat="48.71806" lon="-0.54094">
        <ele>214.749781</ele>
        <time>2024-11-10T11:54:49.639Z</time>
      </trkpt>
      <trkpt lat="48.7179" lon="-0.54099">
        <ele>214.397934</ele>
        <time>2024-11-10T11:55:06.657Z</time>
      </trkpt>
      <trkpt lat="48.71697" lon="-0.54112">
        <ele>212.329592</ele>
        <time>2024-11-10T11:56:46.466Z</time>
      </trkpt>
      <trkpt lat="48.71613" lon="-0.54115">
        <ele>210.470711</ele>
        <time>2024-11-10T11:58:15.210Z</time>
      </trkpt>
      <trkpt lat="48.7157" lon="-0.5413">
        <ele>210.233238</ele>
        <time>2024-11-10T11:58:59.716Z</time>
      </trkpt>
      <trkpt lat="48.71549" lon="-0.54132">
        <ele>210.588725</ele>
        <time>2024-11-10T11:59:21.672Z</time>
      </trkpt>
      <trkpt lat="48.71518" lon="-0.5413">
        <ele>211.097984</ele>
        <time>2024-11-10T11:59:54.127Z</time>
      </trkpt>
      <trkpt lat="48.71485" lon="-0.54122">
        <ele>211.65111</ele>
        <time>2024-11-10T12:00:30.576Z</time>
      </trkpt>
      <trkpt lat="48.71443" lon="-0.541">
        <ele>212.384864</ele>
        <time>2024-11-10T12:01:19.870Z</time>
      </trkpt>
      <trkpt lat="48.71418" lon="-0.5408">
        <ele>212.850341</ele>
        <time>2024-11-10T12:01:51.250Z</time>
      </trkpt>
      <trkpt lat="48.71383" lon="-0.54058">
        <ele>213.023493</ele>
        <time>2024-11-10T12:02:32.918Z</time>
      </trkpt>
      <trkpt lat="48.71329" lon="-0.54035">
        <ele>213.22158</ele>
        <time>2024-11-10T12:03:30.862Z</time>
      </trkpt>
      <trkpt lat="48.71307" lon="-0.5402">
        <ele>213.307246</ele>
        <time>2024-11-10T12:03:55.233Z</time>
      </trkpt>
      <trkpt lat="48.71289" lon="-0.54013">
        <ele>213.373579</ele>
        <time>2024-11-10T12:04:14.362Z</time>
      </trkpt>
      <trkpt lat="48.71202" lon="-0.54015">
        <ele>213.535819</ele>
        <time>2024-11-10T12:05:44.494Z</time>
      </trkpt>
      <trkpt lat="48.7116" lon="-0.54019">
        <ele>213.535819</ele>
        <time>2024-11-10T12:06:27.828Z</time>
      </trkpt>
      <trkpt lat="48.71161" lon="-0.54048">
        <ele>213.535819</ele>
        <time>2024-11-10T12:06:47.491Z</time>
      </trkpt>
      <trkpt lat="48.71152" lon="-0.54059">
        <ele>213.535819</ele>
        <time>2024-11-10T12:06:58.508Z</time>
      </trkpt>
      <trkpt lat="48.71154" lon="-0.54124">
        <ele>213.535819</ele>
        <time>2024-11-10T12:07:42.287Z</time>
      </trkpt>
    </trkseg>
  </trk>
</gpx>